Observation data for Estelline on 01/18/2019      Previous  Date  Next       Current Mesonet Observations  Soil Data  Daily Summary Page  Observations in Plain Language
KES1 180600Z 16006KT 06/04 A30 RMK A01 T00630042  RH  087%=      5-min Rain = 0
KES1 180601Z 16007KT 06/04 A30 RMK A01 T00610041  RH  087%=      5-min Rain = 0
KES1 180602Z 15006KT 06/04 A30 RMK A01 T00600040  RH  087%=      5-min Rain = 0
KES1 180603Z 16006KT 06/04 A30 RMK A01 T00590040  RH  087%=      5-min Rain = 0
KES1 180604Z 16006KT 06/04 A30 RMK A01 T00590040  RH  088%=      5-min Rain = 0
KES1 180605Z 15007KT 06/04 A30 RMK A01 T00590041  RH  088%=      5-min Rain = 0
KES1 180606Z 15006KT 06/04 A30 RMK A01 T00580041  RH  089%=      5-min Rain = 0
KES1 180607Z 15006KT 06/04 A30 RMK A01 T00580041  RH  089%=      5-min Rain = 0
KES1 180608Z 15005KT 06/04 A30 RMK A01 T00580041  RH  089%=      5-min Rain = 0
KES1 180609Z 15006KT 06/04 A2999 RMK A01 T00580041  RH  089%=      5-min Rain = 0
KES1 180610Z 14005KT 06/04 A2999 RMK A01 T00580041  RH  089%=      5-min Rain = 0
KES1 180611Z 13005KT 06/04 A2999 RMK A01 T00580041  RH  089%=      5-min Rain = 0
KES1 180612Z 14006KT 06/04 A2999 RMK A01 T00580041  RH  089%=      5-min Rain = 0
KES1 180613Z 14005KT 06/04 A2999 RMK A01 T00580041  RH  089%=      5-min Rain = 0
KES1 180614Z 14003KT 06/04 A2999 RMK A01 T00580042  RH  090%=      5-min Rain = 0
KES1 180615Z 13003KT 06/04 A2999 RMK A01 T00580042  RH  090%=      5-min Rain = 0
KES1 180616Z 13003KT 06/04 A2999 RMK A01 T00580042  RH  089%=      5-min Rain = 0
KES1 180617Z 13003KT 06/04 A2999 RMK A01 T00580043  RH  090%=      5-min Rain = 0
KES1 180618Z 11003KT 06/04 A2999 RMK A01 T00590043  RH  090%=      5-min Rain = 0
KES1 180619Z 11003KT 06/04 A2999 RMK A01 T00590043  RH  089%=      5-min Rain = 0
KES1 180620Z 11002KT 06/04 A2999 RMK A01 T00590042  RH  089%=      5-min Rain = 0
KES1 180621Z 10003KT 06/04 A2999 RMK A01 T00590042  RH  089%=      5-min Rain = 0
KES1 180622Z 09002KT 06/04 A2999 RMK A01 T00590043  RH  089%=      5-min Rain = 0
KES1 180623Z 09002KT 06/04 A2999 RMK A01 T00590042  RH  089%=      5-min Rain = 0
KES1 180624Z 09003KT 06/04 A2999 RMK A01 T00590041  RH  089%=      5-min Rain = 0
KES1 180625Z 09003KT 06/04 A2999 RMK A01 T00580041  RH  089%=      5-min Rain = 0
KES1 180626Z 10003KT 06/04 A2999 RMK A01 T00580041  RH  089%=      5-min Rain = 0
KES1 180627Z 10003KT 06/04 A2999 RMK A01 T00570041  RH  089%=      5-min Rain = 0
KES1 180628Z 10003KT 06/04 A2999 RMK A01 T00570041  RH  089%=      5-min Rain = 0
KES1 180629Z 10003KT 06/04 A2999 RMK A01 T00570040  RH  089%=      5-min Rain = 0
KES1 180630Z 11003KT 06/04 A2999 RMK A01 T00560040  RH  089%=      5-min Rain = 0
KES1 180631Z 12003KT 06/04 A2999 RMK A01 T00550038  RH  089%=      5-min Rain = 0
KES1 180632Z 13004KT 05/04 A2999 RMK A01 T00540038  RH  090%=      5-min Rain = 0
KES1 180633Z 14004KT 05/04 A2999 RMK A01 T00540039  RH  090%=      5-min Rain = 0
KES1 180634Z 14005KT 05/04 A2999 RMK A01 T00530038  RH  090%=      5-min Rain = 0
KES1 180635Z 14005KT 05/04 A2999 RMK A01 T00530038  RH  090%=      5-min Rain = 0
KES1 180636Z 15005KT 05/04 A2999 RMK A01 T00530039  RH  091%=      5-min Rain = 0
KES1 180637Z 15006KT 05/04 A2999 RMK A01 T00530039  RH  091%=      5-min Rain = 0
KES1 180638Z 15005KT 05/04 A2999 RMK A01 T00540041  RH  091%=      5-min Rain = 0
KES1 180639Z 15005KT 06/04 A2999 RMK A01 T00550041  RH  091%=      5-min Rain = 0
KES1 180640Z 15005KT 06/04 A2998 RMK A01 T00550041  RH  090%=      5-min Rain = 0
KES1 180641Z 15006KT 06/04 A2998 RMK A01 T00550040  RH  090%=      5-min Rain = 0
KES1 180642Z 15006KT 06/04 A2998 RMK A01 T00550040  RH  090%=      5-min Rain = 0
KES1 180643Z 15006KT 06/04 A2998 RMK A01 T00550040  RH  090%=      5-min Rain = 0
KES1 180644Z 15006KT 06/04 A2998 RMK A01 T00550040  RH  090%=      5-min Rain = 0
KES1 180645Z 15006KT 06/04 A2998 RMK A01 T00550041  RH  091%=      5-min Rain = 0
KES1 180646Z 15006KT 06/04 A2998 RMK A01 T00560042  RH  091%=      5-min Rain = 0
KES1 180647Z 15006KT 06/04 A2998 RMK A01 T00560042  RH  091%=      5-min Rain = 0
KES1 180648Z 15006KT 06/04 A2998 RMK A01 T00570043  RH  091%=      5-min Rain = 0
KES1 180649Z 15006KT 06/04 A2998 RMK A01 T00570043  RH  090%=      5-min Rain = 0
KES1 180650Z 15005KT 06/04 A2998 RMK A01 T00580043  RH  090%=      5-min Rain = 0
KES1 180651Z 16005KT 06/04 A2998 RMK A01 T00590044  RH  090%=      5-min Rain = 0
KES1 180652Z 16006KT 06/04 A2998 RMK A01 T00590044  RH  090%=      5-min Rain = 0
KES1 180653Z 15006KT 06/04 A2998 RMK A01 T00590044  RH  090%=      5-min Rain = 0
KES1 180654Z 15005KT 06/04 A2998 RMK A01 T00590043  RH  090%=      5-min Rain = 0
KES1 180655Z 15006KT 06/04 A2998 RMK A01 T00590044  RH  090%=      5-min Rain = 0
KES1 180656Z 15006KT 06/04 A2998 RMK A01 T00600044  RH  090%=      5-min Rain = 0
KES1 180657Z 15007KT 06/05 A2998 RMK A01 T00600045  RH  090%=      5-min Rain = 0
KES1 180658Z 15007KT 06/04 A2998 RMK A01 T00610044  RH  089%=      5-min Rain = 0
KES1 180659Z 15007KT 06/04 A2998 RMK A01 T00610044  RH  089%=      5-min Rain = 0
KES1 180700Z 16007KT 06/04 A2998 RMK A01 T00610044  RH  089%=      5-min Rain = 0
KES1 180701Z 15007KT 06/05 A2998 RMK A01 T00610045  RH  089%=      5-min Rain = 0
KES1 180702Z 15007KT 06/05 A2998 RMK A01 T00610045  RH  089%=      5-min Rain = 0
KES1 180703Z 15007KT 06/04 A2998 RMK A01 T00610044  RH  089%=      5-min Rain = 0
KES1 180704Z 16007KT 06/04 A2998 RMK A01 T00610044  RH  089%=      5-min Rain = 0
KES1 180705Z 15007KT 06/04 A2998 RMK A01 T00600044  RH  089%=      5-min Rain = 0
KES1 180706Z 15007KT 06/04 A2998 RMK A01 T00600044  RH  089%=      5-min Rain = 0
KES1 180707Z 15007KT 06/04 A2997 RMK A01 T00600044  RH  089%=      5-min Rain = 0
KES1 180708Z 15006KT 06/04 A2997 RMK A01 T00600044  RH  089%=      5-min Rain = 0
KES1 180709Z 15006KT 06/04 A2997 RMK A01 T00600043  RH  089%=      5-min Rain = 0
KES1 180710Z 15006KT 06/04 A2997 RMK A01 T00600043  RH  089%=      5-min Rain = 0
KES1 180711Z 15007KT 06/04 A2997 RMK A01 T00590043  RH  089%=      5-min Rain = 0
KES1 180712Z 15007KT 06/04 A2997 RMK A01 T00590043  RH  090%=      5-min Rain = 0
KES1 180713Z 15006KT 06/04 A2997 RMK A01 T00590043  RH  090%=      5-min Rain = 0
KES1 180714Z 15005KT 06/04 A2997 RMK A01 T00590043  RH  090%=      5-min Rain = 0
KES1 180715Z 15006KT 06/04 A2997 RMK A01 T00580042  RH  090%=      5-min Rain = 0
KES1 180716Z 15007KT 06/04 A2997 RMK A01 T00580042  RH  090%=      5-min Rain = 0
KES1 180717Z 15006KT 06/04 A2997 RMK A01 T00570043  RH  090%=      5-min Rain = 0
KES1 180718Z 15008KT 06/04 A2997 RMK A01 T00570043  RH  090%=      5-min Rain = 0
KES1 180719Z 15008KT 06/04 A2997 RMK A01 T00580043  RH  090%=      5-min Rain = 0
KES1 180720Z 15007KT 06/04 A2997 RMK A01 T00570043  RH  090%=      5-min Rain = 0
KES1 180721Z 16007KT 06/04 A2997 RMK A01 T00570042  RH  090%=      5-min Rain = 0
KES1 180722Z 16007KT 06/04 A2997 RMK A01 T00580042  RH  090%=      5-min Rain = 0
KES1 180723Z 15008KT 06/04 A2997 RMK A01 T00580043  RH  090%=      5-min Rain = 0
KES1 180724Z 15008KT 06/04 A2997 RMK A01 T00570043  RH  090%=      5-min Rain = 0
KES1 180725Z 15007KT 06/04 A2997 RMK A01 T00570043  RH  090%=      5-min Rain = 0
KES1 180726Z 15007KT 06/04 A2997 RMK A01 T00580043  RH  090%=      5-min Rain = 0
KES1 180727Z 15007KT 06/04 A2997 RMK A01 T00570043  RH  090%=      5-min Rain = 0
KES1 180728Z 15008KT 06/04 A2997 RMK A01 T00580043  RH  090%=      5-min Rain = 0
KES1 180729Z 15007KT 06/04 A2997 RMK A01 T00570043  RH  090%=      5-min Rain = 0
KES1 180730Z 15008KT 06/04 A2996 RMK A01 T00570043  RH  091%=      5-min Rain = 0
KES1 180731Z 15007KT 06/04 A2996 RMK A01 T00580043  RH  091%=      5-min Rain = 0
KES1 180732Z 15007KT 06/04 A2996 RMK A01 T00570043  RH  091%=      5-min Rain = 0
KES1 180733Z 14008KT 06/04 A2996 RMK A01 T00580043  RH  090%=      5-min Rain = 0
KES1 180734Z 15008KT 06/04 A2996 RMK A01 T00580044  RH  091%=      5-min Rain = 0
KES1 180735Z 15008KT 06/04 A2996 RMK A01 T00580044  RH  090%=      5-min Rain = 0
KES1 180736Z 15008KT 06/04 A2996 RMK A01 T00590044  RH  090%=      5-min Rain = 0
KES1 180737Z 15008KT 06/04 A2996 RMK A01 T00590044  RH  090%=      5-min Rain = 0
KES1 180738Z 15007KT 06/04 A2996 RMK A01 T00590044  RH  090%=      5-min Rain = 0
KES1 180739Z 14007KT 06/04 A2995 RMK A01 T00590043  RH  090%=      5-min Rain = 0
KES1 180740Z 15008KT 06/04 A2995 RMK A01 T00590043  RH  090%=      5-min Rain = 0
KES1 180741Z 14008KT 06/04 A2995 RMK A01 T00580043  RH  090%=      5-min Rain = 0
KES1 180742Z 14008KT 06/04 A2995 RMK A01 T00580043  RH  090%=      5-min Rain = 0
KES1 180743Z 14008KT 06/04 A2995 RMK A01 T00580043  RH  090%=      5-min Rain = 0
KES1 180744Z 14009KT 06/04 A2995 RMK A01 T00580043  RH  090%=      5-min Rain = 0
KES1 180745Z 15008KT 06/04 A2995 RMK A01 T00580043  RH  090%=      5-min Rain = 0
KES1 180746Z 15007KT 06/04 A2995 RMK A01 T00580043  RH  090%=      5-min Rain = 0
KES1 180747Z 15008KT 06/04 A2995 RMK A01 T00570042  RH  090%=      5-min Rain = 0
KES1 180748Z 14007KT 06/04 A2994 RMK A01 T00570043  RH  090%=      5-min Rain = 0
KES1 180749Z 15009KT 06/04 A2994 RMK A01 T00570042  RH  090%=      5-min Rain = 0
KES1 180750Z 14009KT 06/04 A2994 RMK A01 T00560042  RH  091%=      5-min Rain = 0
KES1 180751Z 15009KT 06/04 A2994 RMK A01 T00570042  RH  091%=      5-min Rain = 0
KES1 180752Z 15006KT 06/04 A2994 RMK A01 T00570042  RH  091%=      5-min Rain = 0
KES1 180753Z 14008KT 06/04 A2994 RMK A01 T00560041  RH  090%=      5-min Rain = 0
KES1 180754Z 15007KT 06/04 A2994 RMK A01 T00560041  RH  091%=      5-min Rain = 0
KES1 180755Z 15007KT 06/04 A2994 RMK A01 T00550041  RH  091%=      5-min Rain = 0
KES1 180756Z 15007KT 06/04 A2994 RMK A01 T00550041  RH  091%=      5-min Rain = 0
KES1 180757Z 15008KT 05/04 A2994 RMK A01 T00540041  RH  091%=      5-min Rain = 0
KES1 180758Z 15008KT 05/04 A2994 RMK A01 T00540041  RH  091%=      5-min Rain = 0
KES1 180759Z 15007KT 05/04 A2994 RMK A01 T00540040  RH  091%=      5-min Rain = 0
KES1 180800Z 15008KT 05/04 A2994 RMK A01 T00530040  RH  091%=      5-min Rain = 0
KES1 180801Z 15007KT 05/04 A2994 RMK A01 T00530040  RH  091%=      5-min Rain = 0
KES1 180802Z 15006KT 05/04 A2994 RMK A01 T00530040  RH  091%=      5-min Rain = 0
KES1 180803Z 15008KT 05/04 A2994 RMK A01 T00520040  RH  091%=      5-min Rain = 0
KES1 180804Z 15008KT 05/04 A2994 RMK A01 T00520040  RH  092%=      5-min Rain = 0
KES1 180805Z 15008KT 05/04 A2994 RMK A01 T00520039  RH  092%=      5-min Rain = 0
KES1 180806Z 15007KT 05/04 A2994 RMK A01 T00510039  RH  092%=      5-min Rain = 0
KES1 180807Z 15007KT 05/04 A2994 RMK A01 T00510039  RH  092%=      5-min Rain = 0
KES1 180808Z 15008KT 05/04 A2994 RMK A01 T00500038  RH  092%=      5-min Rain = 0
KES1 180809Z 15007KT 05/04 A2994 RMK A01 T00500039  RH  092%=      5-min Rain = 0
KES1 180810Z 15007KT 05/04 A2994 RMK A01 T00500038  RH  092%=      5-min Rain = 0
KES1 180811Z 15007KT 05/04 A2993 RMK A01 T00490038  RH  092%=      5-min Rain = 0
KES1 180812Z 15008KT 05/04 A2993 RMK A01 T00490038  RH  092%=      5-min Rain = 0
KES1 180813Z 15008KT 05/04 A2993 RMK A01 T00490038  RH  093%=      5-min Rain = 0
KES1 180814Z 15008KT 05/04 A2993 RMK A01 T00490038  RH  093%=      5-min Rain = 0
KES1 180815Z 15009KT 05/04 A2993 RMK A01 T00480038  RH  093%=      5-min Rain = 0
KES1 180816Z 15009KT 05/04 A2993 RMK A01 T00480038  RH  093%=      5-min Rain = 0
KES1 180817Z 15009KT 05/04 A2993 RMK A01 T00480038  RH  093%=      5-min Rain = 0
KES1 180818Z 15010KT 05/04 A2993 RMK A01 T00480037  RH  093%=      5-min Rain = 0
KES1 180819Z 15010KT 05/04 A2993 RMK A01 T00480037  RH  093%=      5-min Rain = 0
KES1 180820Z 15010KT 05/04 A2993 RMK A01 T00470037  RH  093%=      5-min Rain = 0
KES1 180821Z 15010KT 05/04 A2993 RMK A01 T00470037  RH  093%=      5-min Rain = 0
KES1 180822Z 15010KT 05/04 A2993 RMK A01 T00470036  RH  093%=      5-min Rain = 0
KES1 180823Z 15011KT 05/04 A2993 RMK A01 T00460036  RH  093%=      5-min Rain = 0
KES1 180824Z 15011KT 05/04 A2993 RMK A01 T00460036  RH  093%=      5-min Rain = 0
KES1 180825Z 15011KT 05/04 A2993 RMK A01 T00450035  RH  093%=      5-min Rain = 0
KES1 180826Z 15010KT 04/04 A2992 RMK A01 T00440035  RH  093%=      5-min Rain = 0
KES1 180827Z 14010KT 04/03 A2992 RMK A01 T00440034  RH  094%=      5-min Rain = 0
KES1 180828Z 15010KT 04/03 A2992 RMK A01 T00430033  RH  094%=      5-min Rain = 0
KES1 180829Z 15010KT 04/03 A2992 RMK A01 T00420033  RH  094%=      5-min Rain = 0
KES1 180830Z 15010KT 04/03 A2992 RMK A01 T00420033  RH  094%=      5-min Rain = 0
KES1 180831Z 15011KT 04/03 A2992 RMK A01 T00410032  RH  094%=      5-min Rain = 0
KES1 180832Z 14010KT 04/03 A2992 RMK A01 T00410032  RH  094%=      5-min Rain = 0
KES1 180833Z 15011KT 04/03 A2992 RMK A01 T00410033  RH  094%=      5-min Rain = 0
KES1 180834Z 14011KT 04/03 A2991 RMK A01 T00410033  RH  095%=      5-min Rain = 0
KES1 180835Z 14011KT 04/03 A2991 RMK A01 T00410033  RH  095%=      5-min Rain = 0
KES1 180836Z 14011KT 04/03 A2991 RMK A01 T00410033  RH  095%=      5-min Rain = 0
KES1 180837Z 14010KT 04/03 A2991 RMK A01 T00410033  RH  095%=      5-min Rain = 0
KES1 180838Z 14009KT 04/03 A2991 RMK A01 T00400032  RH  094%=      5-min Rain = 0
KES1 180839Z 14009KT 04/03 A2991 RMK A01 T00400031  RH  094%=      5-min Rain = 0
KES1 180840Z 14009KT 04/03 A2991 RMK A01 T00390031  RH  094%=      5-min Rain = 0
KES1 180841Z 14008KT 04/03 A2991 RMK A01 T00390031  RH  095%=      5-min Rain = 0
KES1 180842Z 14008KT 04/03 A2991 RMK A01 T00390031  RH  095%=      5-min Rain = 0
KES1 180843Z 14006KT 04/03 A2991 RMK A01 T00390031  RH  095%=      5-min Rain = 0
KES1 180844Z 14005KT 04/03 A2991 RMK A01 T00390031  RH  095%=      5-min Rain = 0
KES1 180845Z 14006KT 04/03 A2991 RMK A01 T00390031  RH  095%=      5-min Rain = 0
KES1 180846Z 13005KT 04/03 A2991 RMK A01 T00390031  RH  095%=      5-min Rain = 0
KES1 180847Z 14005KT 04/03 A2991 RMK A01 T00390031  RH  095%=      5-min Rain = 0
KES1 180848Z 13005KT 04/03 A2991 RMK A01 T00390032  RH  095%=      5-min Rain = 0
KES1 180849Z 13005KT 04/03 A2991 RMK A01 T00400032  RH  095%=      5-min Rain = 0
KES1 180850Z 14005KT 04/03 A2991 RMK A01 T00400032  RH  095%=      5-min Rain = 0
KES1 180851Z 13006KT 04/03 A2991 RMK A01 T00410033  RH  095%=      5-min Rain = 0
KES1 180852Z 15006KT 04/03 A2991 RMK A01 T00410034  RH  095%=      5-min Rain = 0
KES1 180853Z 15007KT 04/04 A2991 RMK A01 T00430036  RH  095%=      5-min Rain = 0
KES1 180854Z 14006KT 04/04 A2991 RMK A01 T00430036  RH  095%=      5-min Rain = 0
KES1 180855Z 15006KT 04/04 A2991 RMK A01 T00440036  RH  095%=      5-min Rain = 0
KES1 180856Z 15007KT 04/04 A2991 RMK A01 T00440036  RH  094%=      5-min Rain = 0
KES1 180857Z 15007KT 05/04 A299 RMK A01 T00450036  RH  094%=      5-min Rain = 0
KES1 180858Z 16007KT 05/04 A299 RMK A01 T00450036  RH  094%=      5-min Rain = 0
KES1 180859Z 15008KT 05/04 A299 RMK A01 T00460037  RH  094%=      5-min Rain = 0
KES1 180900Z 16007KT 05/04 A299 RMK A01 T00460037  RH  094%=      5-min Rain = 0
KES1 180901Z 16008KT 05/04 A299 RMK A01 T00460037  RH  094%=      5-min Rain = 0
KES1 180902Z 15007KT 05/04 A299 RMK A01 T00460037  RH  094%=      5-min Rain = 0
KES1 180903Z 16009KT 05/04 A299 RMK A01 T00470037  RH  094%=      5-min Rain = 0
KES1 180904Z 16007KT 05/04 A299 RMK A01 T00480039  RH  094%=      5-min Rain = 0
KES1 180905Z 16008KT 05/04 A299 RMK A01 T00480038  RH  093%=      5-min Rain = 0
KES1 180906Z 16009KT 05/04 A299 RMK A01 T00480038  RH  093%=      5-min Rain = 0
KES1 180907Z 16009KT 05/04 A299 RMK A01 T00480038  RH  093%=      5-min Rain = 0
KES1 180908Z 16010KT 05/04 A299 RMK A01 T00490039  RH  093%=      5-min Rain = 0
KES1 180909Z 16010KT 05/04 A299 RMK A01 T00490039  RH  093%=      5-min Rain = 0
KES1 180910Z 16009KT 05/04 A299 RMK A01 T00500039  RH  093%=      5-min Rain = 0
KES1 180911Z 16010KT 05/04 A2989 RMK A01 T00500039  RH  093%=      5-min Rain = 0
KES1 180912Z 16009KT 05/04 A2989 RMK A01 T00500039  RH  093%=      5-min Rain = 0
KES1 180913Z 16010KT 05/04 A2989 RMK A01 T00500039  RH  093%=      5-min Rain = 0
KES1 180914Z 16009KT 05/04 A2989 RMK A01 T00500039  RH  093%=      5-min Rain = 0
KES1 180915Z 16009KT 05/04 A2989 RMK A01 T00490038  RH  093%=      5-min Rain = 0
KES1 180916Z 16010KT 05/04 A2989 RMK A01 T00500039  RH  093%=      5-min Rain = 0
KES1 180917Z 16008KT 05/04 A2989 RMK A01 T00500039  RH  093%=      5-min Rain = 0
KES1 180918Z 16010KT 05/04 A2989 RMK A01 T00500039  RH  093%=      5-min Rain = 0
KES1 180919Z 16009KT 05/04 A2989 RMK A01 T00500039  RH  093%=      5-min Rain = 0
KES1 180920Z 16010KT 05/04 A2989 RMK A01 T00510040  RH  093%=      5-min Rain = 0
KES1 180921Z 16009KT 05/04 A2989 RMK A01 T00510040  RH  093%=      5-min Rain = 0
KES1 180922Z 16010KT 05/04 A2989 RMK A01 T00510039  RH  092%=      5-min Rain = 0
KES1 180923Z 16008KT 05/04 A2989 RMK A01 T00510039  RH  092%=      5-min Rain = 0
KES1 180924Z 16008KT 05/04 A2989 RMK A01 T00510039  RH  092%=      5-min Rain = 0
KES1 180925Z 16009KT 05/04 A2989 RMK A01 T00500038  RH  092%=      5-min Rain = 0
KES1 180926Z 16008KT 05/04 A2989 RMK A01 T00500038  RH  092%=      5-min Rain = 0
KES1 180927Z 16008KT 05/04 A2989 RMK A01 T00490038  RH  092%=      5-min Rain = 0
KES1 180928Z 17008KT 05/04 A2989 RMK A01 T00480037  RH  093%=      5-min Rain = 0
KES1 180929Z 17007KT 05/04 A2989 RMK A01 T00490038  RH  093%=      5-min Rain = 0
KES1 180930Z 17007KT 05/04 A2989 RMK A01 T00480038  RH  093%=      5-min Rain = 0
KES1 180931Z 17007KT 05/04 A2989 RMK A01 T00480038  RH  093%=      5-min Rain = 0
KES1 180932Z 17007KT 05/04 A2989 RMK A01 T00490038  RH  093%=      5-min Rain = 0
KES1 180933Z 18007KT 05/04 A2989 RMK A01 T00490039  RH  093%=      5-min Rain = 0
KES1 180934Z 18007KT 05/04 A2989 RMK A01 T00490039  RH  093%=      5-min Rain = 0
KES1 180935Z 18008KT 05/04 A2989 RMK A01 T00500039  RH  093%=      5-min Rain = 0
KES1 180936Z 17008KT 05/04 A2989 RMK A01 T00500039  RH  093%=      5-min Rain = 0
KES1 180937Z 17008KT 05/04 A2989 RMK A01 T00510039  RH  092%=      5-min Rain = 0
KES1 180938Z 17008KT 05/04 A2989 RMK A01 T00510039  RH  092%=      5-min Rain = 0
KES1 180939Z 18007KT 05/04 A2989 RMK A01 T00510039  RH  092%=      5-min Rain = 0
KES1 180940Z 17008KT 05/04 A2989 RMK A01 T00510039  RH  092%=      5-min Rain = 0
KES1 180941Z 17007KT 05/04 A2989 RMK A01 T00510039  RH  092%=      5-min Rain = 0
KES1 180942Z 17008KT 05/04 A2989 RMK A01 T00510039  RH  092%=      5-min Rain = 0
KES1 180943Z 17008KT 05/04 A2989 RMK A01 T00510039  RH  092%=      5-min Rain = 0
KES1 180944Z 17007KT 05/04 A2989 RMK A01 T00510039  RH  092%=      5-min Rain = 0
KES1 180945Z 18007KT 05/04 A2989 RMK A01 T00520040  RH  092%=      5-min Rain = 0
KES1 180946Z 18007KT 05/04 A2989 RMK A01 T00510039  RH  092%=      5-min Rain = 0
KES1 180947Z 18006KT 05/04 A2989 RMK A01 T00510039  RH  092%=      5-min Rain = 0
KES1 180948Z 19006KT 05/04 A2989 RMK A01 T00510039  RH  092%=      5-min Rain = 0
KES1 180949Z 19005KT 05/04 A2989 RMK A01 T00510039  RH  092%=      5-min Rain = 0
KES1 180950Z 20004KT 05/04 A2989 RMK A01 T00510038  RH  092%=      5-min Rain = 0
KES1 180951Z 21004KT 05/04 A2989 RMK A01 T00500038  RH  092%=      5-min Rain = 0
KES1 180952Z 23001KT 05/04 A2989 RMK A01 T00500037  RH  092%=      5-min Rain = 0
KES1 180953Z 31001KT 05/04 A2989 RMK A01 T00490036  RH  092%=      5-min Rain = 0
KES1 180954Z 33002KT 05/04 A2989 RMK A01 T00470035  RH  092%=      5-min Rain = 0
KES1 180955Z 34002KT 05/03 A2989 RMK A01 T00460034  RH  092%=      5-min Rain = 0
KES1 180956Z 35002KT 05/03 A2989 RMK A01 T00450033  RH  092%=      5-min Rain = 0
KES1 180957Z 34002KT 04/03 A2989 RMK A01 T00440033  RH  093%=      5-min Rain = 0
KES1 180958Z 34001KT 04/03 A2988 RMK A01 T00430033  RH  093%=      5-min Rain = 0
KES1 180959Z 20001KT 04/03 A2988 RMK A01 T00430033  RH  093%=      5-min Rain = 0
KES1 181000Z 07000KT 04/03 A2988 RMK A01 T00430033  RH  094%=      5-min Rain = 0
KES1 181001Z 08001KT 04/03 A2988 RMK A01 T00430034  RH  094%=      5-min Rain = 0
KES1 181002Z 10002KT 04/03 A2988 RMK A01 T00420033  RH  094%=      5-min Rain = 0
KES1 181003Z 10001KT 04/03 A2988 RMK A01 T00420033  RH  094%=      5-min Rain = 0
KES1 181004Z 12002KT 04/03 A2988 RMK A01 T00410033  RH  094%=      5-min Rain = 0
KES1 181005Z 14002KT 04/03 A2988 RMK A01 T00410032  RH  094%=      5-min Rain = 0
KES1 181006Z 16001KT 04/03 A2988 RMK A01 T00410033  RH  095%=      5-min Rain = 0
KES1 181007Z 19002KT 04/03 A2988 RMK A01 T00410033  RH  095%=      5-min Rain = 0
KES1 181008Z 17002KT 04/03 A2988 RMK A01 T00400033  RH  095%=      5-min Rain = 0
KES1 181009Z 17002KT 04/03 A2987 RMK A01 T00410034  RH  095%=      5-min Rain = 0
KES1 181010Z 17002KT 04/04 A2987 RMK A01 T00420035  RH  095%=      5-min Rain = 0
KES1 181011Z 15002KT 04/04 A2987 RMK A01 T00420035  RH  095%=      5-min Rain = 0
KES1 181012Z 13002KT 04/04 A2987 RMK A01 T00420035  RH  095%=      5-min Rain = 0
KES1 181013Z 13003KT 04/03 A2987 RMK A01 T00420034  RH  094%=      5-min Rain = 0
KES1 181014Z 14001KT 04/03 A2987 RMK A01 T00410032  RH  094%=      5-min Rain = 0
KES1 181015Z 15002KT 04/03 A2987 RMK A01 T00400031  RH  094%=      5-min Rain = 0
KES1 181016Z 17001KT 04/03 A2987 RMK A01 T00400031  RH  094%=      5-min Rain = 0
KES1 181017Z 19002KT 04/03 A2987 RMK A01 T00400031  RH  094%=      5-min Rain = 0
KES1 181018Z 18002KT 04/03 A2987 RMK A01 T00400031  RH  094%=      5-min Rain = 0
KES1 181019Z 21001KT 04/03 A2987 RMK A01 T00400032  RH  094%=      5-min Rain = 0
KES1 181020Z 19000KT 04/03 A2987 RMK A01 T00400032  RH  094%=      5-min Rain = 0
KES1 181021Z 19003KT 04/03 A2987 RMK A01 T00400032  RH  094%=      5-min Rain = 0
KES1 181022Z 21002KT 04/03 A2987 RMK A01 T00400032  RH  094%=      5-min Rain = 0
KES1 181023Z 21002KT 04/03 A2987 RMK A01 T00400032  RH  094%=      5-min Rain = 0
KES1 181024Z 19003KT 04/03 A2987 RMK A01 T00400031  RH  094%=      5-min Rain = 0
KES1 181025Z 20003KT 04/03 A2987 RMK A01 T00390030  RH  094%=      5-min Rain = 0
KES1 181026Z 20002KT 04/03 A2986 RMK A01 T00390030  RH  094%=      5-min Rain = 0
KES1 181027Z 19003KT 04/03 A2986 RMK A01 T00390030  RH  094%=      5-min Rain = 0
KES1 181028Z 18003KT 04/03 A2986 RMK A01 T00400031  RH  094%=      5-min Rain = 0
KES1 181029Z 18003KT 04/03 A2986 RMK A01 T00400032  RH  094%=      5-min Rain = 0
KES1 181030Z 19002KT 04/03 A2986 RMK A01 T00400031  RH  094%=      5-min Rain = 0
KES1 181031Z 18003KT 04/03 A2986 RMK A01 T00390030  RH  094%=      5-min Rain = 0
KES1 181032Z 19003KT 04/03 A2986 RMK A01 T00390030  RH  094%=      5-min Rain = 0
KES1 181033Z 20002KT 04/03 A2986 RMK A01 T00390029  RH  094%=      5-min Rain = 0
KES1 181034Z 19003KT 04/03 A2986 RMK A01 T00390029  RH  094%=      5-min Rain = 0
KES1 181035Z 18004KT 04/03 A2986 RMK A01 T00380029  RH  094%=      5-min Rain = 0
KES1 181036Z 18004KT 04/03 A2986 RMK A01 T00390029  RH  094%=      5-min Rain = 0
KES1 181037Z 18004KT 04/03 A2986 RMK A01 T00380029  RH  094%=      5-min Rain = 0
KES1 181038Z 18005KT 04/03 A2986 RMK A01 T00390029  RH  094%=      5-min Rain = 0
KES1 181039Z 18004KT 04/03 A2986 RMK A01 T00390029  RH  093%=      5-min Rain = 0
KES1 181040Z 19003KT 04/03 A2986 RMK A01 T00390029  RH  093%=      5-min Rain = 0
KES1 181041Z 20003KT 04/03 A2985 RMK A01 T00400029  RH  093%=      5-min Rain = 0
KES1 181042Z 20004KT 04/03 A2985 RMK A01 T00400030  RH  093%=      5-min Rain = 0
KES1 181043Z 22003KT 04/03 A2985 RMK A01 T00400029  RH  092%=      5-min Rain = 0
KES1 181044Z 23003KT 04/03 A2985 RMK A01 T00400028  RH  092%=      5-min Rain = 0
KES1 181045Z 23002KT 04/03 A2985 RMK A01 T00380025  RH  092%=      5-min Rain = 0
KES1 181046Z 23002KT 04/03 A2985 RMK A01 T00370025  RH  092%=      5-min Rain = 0
KES1 181047Z 24001KT 04/02 A2985 RMK A01 T00360024  RH  092%=      5-min Rain = 0
KES1 181048Z 22002KT 04/02 A2985 RMK A01 T00350023  RH  092%=      5-min Rain = 0
KES1 181049Z 18003KT 04/02 A2985 RMK A01 T00350024  RH  093%=      5-min Rain = 0
KES1 181050Z 18005KT 03/02 A2985 RMK A01 T00340024  RH  093%=      5-min Rain = 0
KES1 181051Z 17006KT 04/03 A2985 RMK A01 T00360027  RH  094%=      5-min Rain = 0
KES1 181052Z 17007KT 04/03 A2985 RMK A01 T00380029  RH  094%=      5-min Rain = 0
KES1 181053Z 17007KT 04/03 A2985 RMK A01 T00390030  RH  094%=      5-min Rain = 0
KES1 181054Z 16008KT 04/03 A2984 RMK A01 T00410031  RH  093%=      5-min Rain = 0
KES1 181055Z 16007KT 04/03 A2984 RMK A01 T00410030  RH  093%=      5-min Rain = 0
KES1 181056Z 17007KT 04/03 A2984 RMK A01 T00420030  RH  092%=      5-min Rain = 0
KES1 181057Z 17007KT 04/03 A2984 RMK A01 T00430031  RH  092%=      5-min Rain = 0
KES1 181058Z 17006KT 04/03 A2984 RMK A01 T00440031  RH  091%=      5-min Rain = 0
KES1 181059Z 18002G7KT 05/03 A2985 RMK A01 T00450031  RH  091%=      5-min Rain = 0
KES1 181100Z 33002KT 05/03 A2985 RMK A01 T00460031  RH  090%=      5-min Rain = 0
KES1 181101Z 34007KT 04/03 A2985 RMK A01 T00440027  RH  088%=      5-min Rain = 0
KES1 181102Z 34009KT 04/02 A2985 RMK A01 T00380020  RH  088%=      5-min Rain = 0
KES1 181103Z 34008KT 03/02 A2985 RMK A01 T00330018  RH  090%=      5-min Rain = 0
KES1 181104Z 33005KT 03/02 A2985 RMK A01 T00330022  RH  092%=      5-min Rain = 0
KES1 181105Z 32001KT 03/02 A2985 RMK A01 T00340024  RH  093%=      5-min Rain = 0
KES1 181106Z 15002KT 04/02 A2985 RMK A01 T00350024  RH  093%=      5-min Rain = 0
KES1 181107Z 16005KT 04/03 A2984 RMK A01 T00360026  RH  093%=      5-min Rain = 0
KES1 181108Z 17007KT 04/03 A2984 RMK A01 T00370026  RH  093%=      5-min Rain = 0
KES1 181109Z 17005KT 04/03 A2984 RMK A01 T00380027  RH  092%=      5-min Rain = 0
KES1 181110Z 20007KT 04/03 A2984 RMK A01 T00400028  RH  092%=      5-min Rain = 0
KES1 181111Z 19004KT 04/03 A2985 RMK A01 T00440030  RH  090%=      5-min Rain = 0
KES1 181112Z 20002KT 05/03 A2985 RMK A01 T00480030  RH  089%=      5-min Rain = 0
KES1 181113Z 27003KT 05/03 A2985 RMK A01 T00480030  RH  088%=      5-min Rain = 0
KES1 181114Z 31005KT 05/03 A2985 RMK A01 T00480028  RH  087%=      5-min Rain = 0
KES1 181115Z 33005KT 05/03 A2985 RMK A01 T00450025  RH  087%=      5-min Rain = 0
KES1 181116Z 34004KT 04/02 A2985 RMK A01 T00430024  RH  088%=      5-min Rain = 0
KES1 181117Z 34002KT 04/03 A2985 RMK A01 T00420026  RH  089%=      5-min Rain = 0
KES1 181118Z 32000KT 04/03 A2984 RMK A01 T00420026  RH  089%=      5-min Rain = 0
KES1 181119Z 00000KT 04/03 A2984 RMK A01 T00420027  RH  090%=      5-min Rain = 0
KES1 181120Z 23001KT 04/03 A2984 RMK A01 T00430027  RH  090%=      5-min Rain = 0
KES1 181121Z 18001KT 04/03 A2984 RMK A01 T00430027  RH  089%=      5-min Rain = 0
KES1 181122Z 18002KT 04/03 A2984 RMK A01 T00430026  RH  088%=      5-min Rain = 0
KES1 181123Z 23001KT 04/02 A2984 RMK A01 T00420024  RH  089%=      5-min Rain = 0
KES1 181124Z 16002KT 04/02 A2983 RMK A01 T00410024  RH  089%=      5-min Rain = 0
KES1 181125Z 18003KT 04/03 A2983 RMK A01 T00400025  RH  090%=      5-min Rain = 0
KES1 181126Z 18003KT 04/03 A2983 RMK A01 T00410025  RH  090%=      5-min Rain = 0
KES1 181127Z 18004KT 04/03 A2983 RMK A01 T00410026  RH  090%=      5-min Rain = 0
KES1 181128Z 18004KT 04/03 A2983 RMK A01 T00420027  RH  090%=      5-min Rain = 0
KES1 181129Z 18004KT 04/03 A2983 RMK A01 T00420026  RH  090%=      5-min Rain = 0
KES1 181130Z 18004KT 04/03 A2983 RMK A01 T00420026  RH  089%=      5-min Rain = 0
KES1 181131Z 18004KT 04/03 A2983 RMK A01 T00420026  RH  089%=      5-min Rain = 0
KES1 181132Z 18003KT 04/03 A2983 RMK A01 T00420026  RH  089%=      5-min Rain = 0
KES1 181133Z 17003KT 04/03 A2982 RMK A01 T00420026  RH  089%=      5-min Rain = 0
KES1 181134Z 17003KT 04/03 A2982 RMK A01 T00420025  RH  089%=      5-min Rain = 0
KES1 181135Z 15002KT 04/03 A2982 RMK A01 T00410025  RH  089%=      5-min Rain = 0
KES1 181136Z 14002KT 04/03 A2982 RMK A01 T00410025  RH  089%=      5-min Rain = 0
KES1 181137Z 14001KT 04/02 A2982 RMK A01 T00400024  RH  089%=      5-min Rain = 0
KES1 181138Z 11001KT 04/02 A2982 RMK A01 T00390023  RH  090%=      5-min Rain = 0
KES1 181139Z 08001KT 04/02 A2982 RMK A01 T00370021  RH  089%=      5-min Rain = 0
KES1 181140Z 04001KT 04/02 A2982 RMK A01 T00360020  RH  090%=      5-min Rain = 0
KES1 181141Z 04001KT 04/02 A2982 RMK A01 T00350021  RH  091%=      5-min Rain = 0
KES1 181142Z 02001KT 03/02 A2982 RMK A01 T00340021  RH  091%=      5-min Rain = 0
KES1 181143Z 04000KT 03/02 A2981 RMK A01 T00340022  RH  092%=      5-min Rain = 0
KES1 181144Z 13001KT 03/02 A2981 RMK A01 T00340023  RH  092%=      5-min Rain = 0
KES1 181145Z 12002KT 04/02 A2981 RMK A01 T00350024  RH  093%=      5-min Rain = 0
KES1 181146Z 18000KT 04/03 A2981 RMK A01 T00360025  RH  092%=      5-min Rain = 0
KES1 181147Z 15001KT 04/03 A2981 RMK A01 T00360025  RH  092%=      5-min Rain = 0
KES1 181148Z 19002KT 04/03 A2981 RMK A01 T00370025  RH  092%=      5-min Rain = 0
KES1 181149Z 17001KT 04/03 A2981 RMK A01 T00360025  RH  092%=      5-min Rain = 0
KES1 181150Z 17002KT 04/02 A2981 RMK A01 T00360024  RH  091%=      5-min Rain = 0
KES1 181151Z 16003KT 04/02 A2981 RMK A01 T00360023  RH  091%=      5-min Rain = 0
KES1 181152Z 16003KT 04/02 A2981 RMK A01 T00360023  RH  091%=      5-min Rain = 0
KES1 181153Z 15003KT 04/02 A2981 RMK A01 T00360023  RH  091%=      5-min Rain = 0
KES1 181154Z 15003KT 04/02 A2981 RMK A01 T00360023  RH  091%=      5-min Rain = 0
KES1 181155Z 15003KT 04/02 A298 RMK A01 T00360022  RH  091%=      5-min Rain = 0
KES1 181156Z 16003KT 04/02 A298 RMK A01 T00360021  RH  090%=      5-min Rain = 0
KES1 181157Z 16002KT 04/02 A298 RMK A01 T00360022  RH  091%=      5-min Rain = 0
KES1 181158Z 15002KT 04/02 A298 RMK A01 T00350022  RH  091%=      5-min Rain = 0
KES1 181159Z 15003KT 04/02 A298 RMK A01 T00350022  RH  091%=      5-min Rain = 0
KES1 181200Z 16003KT 04/02 A298 RMK A01 T00360022  RH  091%=      5-min Rain = 0
KES1 181201Z 15003KT 04/02 A298 RMK A01 T00360022  RH  091%=      5-min Rain = 0
KES1 181202Z 15005KT 04/02 A2979 RMK A01 T00360021  RH  090%=      5-min Rain = 0
KES1 181203Z 15006KT 04/02 A2979 RMK A01 T00350020  RH  090%=      5-min Rain = 0
KES1 181204Z 16007KT 03/02 A2979 RMK A01 T00340020  RH  090%=      5-min Rain = 0
KES1 181205Z 16008KT 03/02 A2979 RMK A01 T00340020  RH  091%=      5-min Rain = 0
KES1 181206Z 16007KT 03/02 A2979 RMK A01 T00340021  RH  092%=      5-min Rain = 0
KES1 181207Z 16009KT 04/02 A2979 RMK A01 T00350022  RH  092%=      5-min Rain = 0
KES1 181208Z 16009KT 04/02 A2979 RMK A01 T00360023  RH  092%=      5-min Rain = 0
KES1 181209Z 16008KT 04/02 A2979 RMK A01 T00370024  RH  091%=      5-min Rain = 0
KES1 181210Z 16009KT 04/02 A2979 RMK A01 T00380024  RH  091%=      5-min Rain = 0
KES1 181211Z 16009KT 04/03 A2979 RMK A01 T00390025  RH  090%=      5-min Rain = 0
KES1 181212Z 16009KT 04/03 A2979 RMK A01 T00400025  RH  090%=      5-min Rain = 0
KES1 181213Z 17009KT 04/03 A2979 RMK A01 T00410025  RH  089%=      5-min Rain = 0
KES1 181214Z 17009KT 04/03 A2979 RMK A01 T00420025  RH  089%=      5-min Rain = 0
KES1 181215Z 16008KT 04/03 A2979 RMK A01 T00430025  RH  088%=      5-min Rain = 0
KES1 181216Z 17007KT 04/03 A2979 RMK A01 T00440025  RH  088%=      5-min Rain = 0
KES1 181217Z 17006KT 05/03 A2979 RMK A01 T00450026  RH  087%=      5-min Rain = 0
KES1 181218Z 18004KT 05/03 A2979 RMK A01 T00460025  RH  087%=      5-min Rain = 0
KES1 181219Z 20003KT 05/03 A2979 RMK A01 T00460025  RH  086%=      5-min Rain = 0
KES1 181220Z 22002KT 05/03 A2979 RMK A01 T00460025  RH  086%=      5-min Rain = 0
KES1 181221Z 23002KT 05/03 A2979 RMK A01 T00460025  RH  086%=      5-min Rain = 0
KES1 181222Z 21002KT 05/03 A2979 RMK A01 T00460025  RH  086%=      5-min Rain = 0
KES1 181223Z 20002KT 05/03 A2979 RMK A01 T00450025  RH  086%=      5-min Rain = 0
KES1 181224Z 18002KT 04/02 A2979 RMK A01 T00440023  RH  086%=      5-min Rain = 0
KES1 181225Z 15001KT 04/02 A2979 RMK A01 T00420020  RH  085%=      5-min Rain = 0
KES1 181226Z 15001KT 04/02 A2979 RMK A01 T00380016  RH  085%=      5-min Rain = 0
KES1 181227Z 19000KT 04/02 A2979 RMK A01 T00350015  RH  087%=      5-min Rain = 0
KES1 181228Z 17002KT 03/02 A2979 RMK A01 T00340016  RH  088%=      5-min Rain = 0
KES1 181229Z 16002KT 03/02 A2979 RMK A01 T00340017  RH  089%=      5-min Rain = 0
KES1 181230Z 15002KT 03/02 A2979 RMK A01 T00340019  RH  090%=      5-min Rain = 0
KES1 181231Z 15002KT 03/02 A2979 RMK A01 T00340020  RH  090%=      5-min Rain = 0
KES1 181232Z 18001KT 04/02 A2979 RMK A01 T00350021  RH  091%=      5-min Rain = 0
KES1 181233Z 22001KT 04/02 A2979 RMK A01 T00350021  RH  091%=      5-min Rain = 0
KES1 181234Z 18000KT 03/02 A2979 RMK A01 T00340019  RH  090%=      5-min Rain = 0
KES1 181235Z 22001KT 03/02 A2979 RMK A01 T00340019  RH  090%=      5-min Rain = 0
KES1 181236Z 20001KT 04/02 A2979 RMK A01 T00350021  RH  091%=      5-min Rain = 0
KES1 181237Z 18002KT 04/02 A2979 RMK A01 T00360022  RH  090%=      5-min Rain = 0
KES1 181238Z 17003KT 04/02 A2979 RMK A01 T00370021  RH  090%=      5-min Rain = 0
KES1 181239Z 17004KT 04/02 A2979 RMK A01 T00370021  RH  090%=      5-min Rain = 0
KES1 181240Z 16004KT 04/02 A2979 RMK A01 T00380023  RH  090%=      5-min Rain = 0
KES1 181241Z 16003KT 04/02 A2979 RMK A01 T00390023  RH  089%=      5-min Rain = 0
KES1 181242Z 16002KT 04/02 A2979 RMK A01 T00400022  RH  089%=      5-min Rain = 0
KES1 181243Z 13002KT 04/02 A2978 RMK A01 T00400022  RH  088%=      5-min Rain = 0
KES1 181244Z 13002KT 04/02 A2978 RMK A01 T00400022  RH  088%=      5-min Rain = 0
KES1 181245Z 13002KT 04/02 A2978 RMK A01 T00400022  RH  088%=      5-min Rain = 0
KES1 181246Z 14003KT 04/02 A2978 RMK A01 T00390021  RH  088%=      5-min Rain = 0
KES1 181247Z 16003KT 04/02 A2978 RMK A01 T00380020  RH  088%=      5-min Rain = 0
KES1 181248Z 16003KT 04/02 A2978 RMK A01 T00370021  RH  089%=      5-min Rain = 0
KES1 181249Z 16004KT 04/02 A2978 RMK A01 T00380022  RH  090%=      5-min Rain = 0
KES1 181250Z 16004KT 04/02 A2978 RMK A01 T00390023  RH  090%=      5-min Rain = 0
KES1 181251Z 17003KT 04/02 A2978 RMK A01 T00400023  RH  089%=      5-min Rain = 0
KES1 181252Z 17003KT 04/02 A2978 RMK A01 T00400024  RH  089%=      5-min Rain = 0
KES1 181253Z 17003KT 04/02 A2978 RMK A01 T00410024  RH  089%=      5-min Rain = 0
KES1 181254Z 18003KT 04/02 A2978 RMK A01 T00420024  RH  088%=      5-min Rain = 0
KES1 181255Z 16003KT 04/03 A2978 RMK A01 T00430025  RH  088%=      5-min Rain = 0
KES1 181256Z 15002KT 04/03 A2977 RMK A01 T00440025  RH  088%=      5-min Rain = 0
KES1 181257Z 16002KT 04/03 A2977 RMK A01 T00440025  RH  087%=      5-min Rain = 0
KES1 181258Z 15003KT 05/03 A2977 RMK A01 T00450025  RH  087%=      5-min Rain = 0
KES1 181259Z 15003KT 05/03 A2977 RMK A01 T00450025  RH  087%=      5-min Rain = 0
KES1 181300Z 17003KT 05/02 A2977 RMK A01 T00450024  RH  086%=      5-min Rain = 0
KES1 181301Z 16003KT 05/02 A2977 RMK A01 T00450024  RH  086%=      5-min Rain = 0
KES1 181302Z 16002KT 05/02 A2977 RMK A01 T00460024  RH  086%=      5-min Rain = 0
KES1 181303Z 17003KT 05/02 A2977 RMK A01 T00460024  RH  086%=      5-min Rain = 0
KES1 181304Z 16005KT 05/02 A2977 RMK A01 T00460024  RH  086%=      5-min Rain = 0
KES1 181305Z 15005KT 05/02 A2977 RMK A01 T00450023  RH  086%=      5-min Rain = 0
KES1 181306Z 15006KT 04/02 A2976 RMK A01 T00440022  RH  086%=      5-min Rain = 0
KES1 181307Z 16005KT 04/02 A2976 RMK A01 T00430021  RH  086%=      5-min Rain = 0
KES1 181308Z 15005KT 04/02 A2976 RMK A01 T00420021  RH  086%=      5-min Rain = 0
KES1 181309Z 15005KT 04/02 A2976 RMK A01 T00410021  RH  087%=      5-min Rain = 0
KES1 181310Z 15005KT 04/02 A2976 RMK A01 T00410022  RH  087%=      5-min Rain = 0
KES1 181311Z 15004KT 04/02 A2977 RMK A01 T00410022  RH  088%=      5-min Rain = 0
KES1 181312Z 14003KT 04/02 A2977 RMK A01 T00410023  RH  088%=      5-min Rain = 0
KES1 181313Z 11002KT 04/02 A2977 RMK A01 T00420023  RH  088%=      5-min Rain = 0
KES1 181314Z 12001KT 04/02 A2977 RMK A01 T00420023  RH  087%=      5-min Rain = 0
KES1 181315Z 35002KT 04/02 A2977 RMK A01 T00420022  RH  087%=      5-min Rain = 0
KES1 181316Z 34002KT 04/02 A2978 RMK A01 T00400019  RH  086%=      5-min Rain = 0
KES1 181317Z 33003KT 04/02 A2978 RMK A01 T00370017  RH  087%=      5-min Rain = 0
KES1 181318Z 32002KT 03/02 A2978 RMK A01 T00340015  RH  087%=      5-min Rain = 0
KES1 181319Z 31002KT 03/02 A2978 RMK A01 T00330016  RH  089%=      5-min Rain = 0
KES1 181320Z 27001KT 03/02 A2979 RMK A01 T00330017  RH  089%=      5-min Rain = 0
KES1 181321Z 25001KT 03/02 A2979 RMK A01 T00330018  RH  090%=      5-min Rain = 0
KES1 181322Z 22001KT 03/02 A2978 RMK A01 T00340018  RH  090%=      5-min Rain = 0
KES1 181323Z 28001KT 03/02 A2978 RMK A01 T00330018  RH  090%=      5-min Rain = 0
KES1 181324Z 30001KT 03/02 A2978 RMK A01 T00340019  RH  090%=      5-min Rain = 0
KES1 181325Z 30001KT 04/02 A2978 RMK A01 T00350019  RH  090%=      5-min Rain = 0
KES1 181326Z 28002KT 04/02 A2979 RMK A01 T00350020  RH  090%=      5-min Rain = 0
KES1 181327Z 27003KT 04/02 A2979 RMK A01 T00360020  RH  089%=      5-min Rain = 0
KES1 181328Z 27003KT 04/02 A2979 RMK A01 T00350018  RH  089%=      5-min Rain = 0
KES1 181329Z 25003KT 04/02 A2979 RMK A01 T00350018  RH  089%=      5-min Rain = 0
KES1 181330Z 26003KT 03/02 A298 RMK A01 T00340017  RH  089%=      5-min Rain = 0
KES1 181331Z 27003KT 03/02 A298 RMK A01 T00340017  RH  089%=      5-min Rain = 0
KES1 181332Z 26002KT 03/02 A2979 RMK A01 T00330017  RH  089%=      5-min Rain = 0
KES1 181333Z 26002KT 03/02 A2979 RMK A01 T00330017  RH  089%=      5-min Rain = 0
KES1 181334Z 25002KT 03/02 A2979 RMK A01 T00320017  RH  089%=      5-min Rain = 0
KES1 181335Z 26002KT 03/02 A2979 RMK A01 T00320017  RH  090%=      5-min Rain = 0
KES1 181336Z 26002KT 03/02 A2979 RMK A01 T00330019  RH  091%=      5-min Rain = 0
KES1 181337Z 26002KT 03/02 A2979 RMK A01 T00340020  RH  091%=      5-min Rain = 0
KES1 181338Z 24002KT 03/02 A2979 RMK A01 T00340020  RH  090%=      5-min Rain = 0
KES1 181339Z 23002KT 03/02 A2979 RMK A01 T00340019  RH  090%=      5-min Rain = 0
KES1 181340Z 24002KT 03/02 A2979 RMK A01 T00340018  RH  089%=      5-min Rain = 0
KES1 181341Z 28004KT 03/02 A2979 RMK A01 T00340018  RH  089%=      5-min Rain = 0
KES1 181342Z 29005KT 03/02 A2979 RMK A01 T00320016  RH  089%=      5-min Rain = 0
KES1 181343Z 30003KT 03/02 A2979 RMK A01 T00310016  RH  090%=      5-min Rain = 0
KES1 181344Z 27003KT 03/02 A2979 RMK A01 T00310016  RH  090%=      5-min Rain = 0
KES1 181345Z 25003KT 03/02 A2979 RMK A01 T00300016  RH  090%=      5-min Rain = 0
KES1 181346Z 22003KT 03/02 A2979 RMK A01 T00300015  RH  090%=      5-min Rain = 0
KES1 181347Z 21004KT 03/01 A2978 RMK A01 T00280014  RH  090%=      5-min Rain = 0
KES1 181348Z 21004KT 03/01 A2978 RMK A01 T00270014  RH  091%=      5-min Rain = 0
KES1 181349Z 22005KT 03/02 A2979 RMK A01 T00290018  RH  092%=      5-min Rain = 0
KES1 181350Z 21005KT 03/02 A2979 RMK A01 T00300019  RH  092%=      5-min Rain = 0
KES1 181351Z 19006KT 03/02 A2978 RMK A01 T00320020  RH  092%=      5-min Rain = 0
KES1 181352Z 19007KT 03/02 A2978 RMK A01 T00330021  RH  092%=      5-min Rain = 0
KES1 181353Z 19006KT 03/02 A2978 RMK A01 T00340021  RH  091%=      5-min Rain = 0
KES1 181354Z 21005KT 03/02 A2978 RMK A01 T00340021  RH  091%=      5-min Rain = 0
KES1 181355Z 20005KT 04/02 A2978 RMK A01 T00350022  RH  091%=      5-min Rain = 0
KES1 181356Z 20005KT 04/02 A2978 RMK A01 T00360022  RH  091%=      5-min Rain = 0
KES1 181357Z 20006KT 04/02 A2978 RMK A01 T00370022  RH  090%=      5-min Rain = 0
KES1 181358Z 19007KT 04/02 A2978 RMK A01 T00370022  RH  090%=      5-min Rain = 0
KES1 181359Z 18008KT 04/02 A2978 RMK A01 T00380023  RH  090%=      5-min Rain = 0
KES1 181400Z 18008KT 04/03 A2978 RMK A01 T00400025  RH  090%=      5-min Rain = 0
KES1 181401Z 18008KT 04/03 A2978 RMK A01 T00420025  RH  089%=      5-min Rain = 0
KES1 181402Z 18009KT 04/03 A2977 RMK A01 T00430025  RH  088%=      5-min Rain = 0
KES1 181403Z 18009KT 05/03 A2977 RMK A01 T00450026  RH  088%=      5-min Rain = 0
KES1 181404Z 18008KT 05/03 A2977 RMK A01 T00460027  RH  087%=      5-min Rain = 0
KES1 181405Z 18007KT 05/03 A2977 RMK A01 T00470027  RH  086%=      5-min Rain = 0
KES1 181406Z 18007KT 05/03 A2977 RMK A01 T00480027  RH  086%=      5-min Rain = 0
KES1 181407Z 18008KT 05/03 A2977 RMK A01 T00490028  RH  086%=      5-min Rain = 0
KES1 181408Z 17007KT 05/03 A2977 RMK A01 T00500027  RH  085%=      5-min Rain = 0
KES1 181409Z 17007KT 05/03 A2977 RMK A01 T00510028  RH  085%=      5-min Rain = 0
KES1 181410Z 17007KT 05/03 A2977 RMK A01 T00510028  RH  085%=      5-min Rain = 0
KES1 181411Z 17007KT 05/03 A2977 RMK A01 T00530028  RH  084%=      5-min Rain = 0
KES1 181412Z 17007KT 05/03 A2977 RMK A01 T00540029  RH  084%=      5-min Rain = 0
KES1 181413Z 17007KT 05/03 A2977 RMK A01 T00540029  RH  084%=      5-min Rain = 0
KES1 181414Z 17007KT 05/03 A2977 RMK A01 T00540029  RH  084%=      5-min Rain = 0
KES1 181415Z 17007KT 05/03 A2977 RMK A01 T00540029  RH  084%=      5-min Rain = 0
KES1 181416Z 17007KT 05/03 A2977 RMK A01 T00540029  RH  084%=      5-min Rain = 0
KES1 181417Z 17007KT 05/03 A2976 RMK A01 T00540028  RH  083%=      5-min Rain = 0
KES1 181418Z 17007KT 06/03 A2976 RMK A01 T00550028  RH  083%=      5-min Rain = 0
KES1 181419Z 17007KT 06/03 A2976 RMK A01 T00550028  RH  083%=      5-min Rain = 0
KES1 181420Z 17008KT 06/03 A2976 RMK A01 T00560028  RH  082%=      5-min Rain = 0
KES1 181421Z 16008KT 06/03 A2976 RMK A01 T00560028  RH  082%=      5-min Rain = 0
KES1 181422Z 17008KT 06/03 A2975 RMK A01 T00560029  RH  083%=      5-min Rain = 0
KES1 181423Z 17008KT 06/03 A2975 RMK A01 T00550028  RH  083%=      5-min Rain = 0
KES1 181424Z 17009KT 06/03 A2975 RMK A01 T00550028  RH  083%=      5-min Rain = 0
KES1 181425Z 17008KT 06/03 A2975 RMK A01 T00550028  RH  083%=      5-min Rain = 0
KES1 181426Z 16007KT 06/03 A2975 RMK A01 T00550028  RH  083%=      5-min Rain = 0
KES1 181427Z 16006KT 05/03 A2976 RMK A01 T00540028  RH  083%=      5-min Rain = 0
KES1 181428Z 16007KT 05/03 A2975 RMK A01 T00540028  RH  083%=      5-min Rain = 0
KES1 181429Z 16007KT 05/03 A2975 RMK A01 T00530027  RH  083%=      5-min Rain = 0
KES1 181430Z 16007KT 05/03 A2975 RMK A01 T00530027  RH  083%=      5-min Rain = 0
KES1 181431Z 16005KT 05/03 A2975 RMK A01 T00540028  RH  084%=      5-min Rain = 0
KES1 181432Z 17005KT 05/03 A2975 RMK A01 T00530028  RH  084%=      5-min Rain = 0
KES1 181433Z 16007KT 05/03 A2975 RMK A01 T00530029  RH  084%=      5-min Rain = 0
KES1 181434Z 16007KT 05/03 A2975 RMK A01 T00540029  RH  084%=      5-min Rain = 0
KES1 181435Z 16007KT 05/03 A2975 RMK A01 T00540029  RH  084%=      5-min Rain = 0
KES1 181436Z 17006KT 05/03 A2975 RMK A01 T00540028  RH  084%=      5-min Rain = 0
KES1 181437Z 19005KT 05/03 A2976 RMK A01 T00540029  RH  084%=      5-min Rain = 0
KES1 181438Z 19004KT 06/03 A2976 RMK A01 T00550028  RH  083%=      5-min Rain = 0
KES1 181439Z 20005KT 06/03 A2976 RMK A01 T00570028  RH  082%=      5-min Rain = 0
KES1 181440Z 19006KT 06/03 A2976 RMK A01 T00590028  RH  081%=      5-min Rain = 0
KES1 181441Z 18006KT 06/03 A2976 RMK A01 T00610028  RH  079%=      5-min Rain = 0
KES1 181442Z 18006KT 06/03 A2975 RMK A01 T00630029  RH  079%=      5-min Rain = 0
KES1 181443Z 19005KT 06/03 A2976 RMK A01 T00640030  RH  079%=      5-min Rain = 0
KES1 181444Z 18007KT 06/03 A2975 RMK A01 T00640031  RH  079%=      5-min Rain = 0
KES1 181445Z 18008KT 07/03 A2975 RMK A01 T00650030  RH  079%=      5-min Rain = 0
KES1 181446Z 20007KT 07/03 A2975 RMK A01 T00660031  RH  078%=      5-min Rain = 0
KES1 181447Z 19007KT 07/03 A2975 RMK A01 T00660030  RH  078%=      5-min Rain = 0
KES1 181448Z 20007KT 07/03 A2975 RMK A01 T00670030  RH  077%=      5-min Rain = 0
KES1 181449Z 19007KT 07/03 A2975 RMK A01 T00690030  RH  076%=      5-min Rain = 0
KES1 181450Z 20004KT 07/03 A2975 RMK A01 T00700029  RH  075%=      5-min Rain = 0
KES1 181451Z 20006KT 07/03 A2975 RMK A01 T00700030  RH  075%=      5-min Rain = 0
KES1 181452Z 21006KT 07/03 A2976 RMK A01 T00710031  RH  076%=      5-min Rain = 0
KES1 181453Z 21005KT 07/03 A2976 RMK A01 T00720032  RH  076%=      5-min Rain = 0
KES1 181454Z 21006KT 07/03 A2976 RMK A01 T00720033  RH  076%=      5-min Rain = 0
KES1 181455Z 20007KT 07/03 A2976 RMK A01 T00720032  RH  076%=      5-min Rain = 0
KES1 181456Z 21007KT 07/03 A2975 RMK A01 T00720033  RH  076%=      5-min Rain = 0
KES1 181457Z 20007KT 07/03 A2975 RMK A01 T00710033  RH  077%=      5-min Rain = 0
KES1 181458Z 20008KT 07/03 A2975 RMK A01 T00710034  RH  077%=      5-min Rain = 0
KES1 181459Z 19008KT 07/03 A2975 RMK A01 T00710034  RH  077%=      5-min Rain = 0
KES1 181500Z 19010KT 07/03 A2975 RMK A01 T00720034  RH  077%=      5-min Rain = 0
KES1 181501Z 20009KT 07/04 A2975 RMK A01 T00730035  RH  077%=      5-min Rain = 0
KES1 181502Z 20009KT 07/04 A2975 RMK A01 T00740035  RH  076%=      5-min Rain = 0
KES1 181503Z 20008KT 08/04 A2975 RMK A01 T00750036  RH  076%=      5-min Rain = 0
KES1 181504Z 20009KT 08/04 A2975 RMK A01 T00760035  RH  075%=      5-min Rain = 0
KES1 181505Z 20008KT 08/03 A2975 RMK A01 T00770034  RH  074%=      5-min Rain = 0
KES1 181506Z 21008KT 08/04 A2975 RMK A01 T00770035  RH  074%=      5-min Rain = 0
KES1 181507Z 20005KT 08/03 A2975 RMK A01 T00780034  RH  074%=      5-min Rain = 0
KES1 181508Z 21006KT 08/03 A2976 RMK A01 T00790034  RH  073%=      5-min Rain = 0
KES1 181509Z 22004KT 08/03 A2976 RMK A01 T00800033  RH  072%=      5-min Rain = 0
KES1 181510Z 23004KT 08/03 A2976 RMK A01 T00810034  RH  072%=      5-min Rain = 0
KES1 181511Z 24004KT 08/03 A2976 RMK A01 T00810032  RH  071%=      5-min Rain = 0
KES1 181512Z 24004KT 08/03 A2976 RMK A01 T00830033  RH  071%=      5-min Rain = 0
KES1 181513Z 23004KT 08/03 A2976 RMK A01 T00830033  RH  071%=      5-min Rain = 0
KES1 181514Z 22004KT 08/03 A2976 RMK A01 T00830033  RH  070%=      5-min Rain = 0
KES1 181515Z 22004KT 08/03 A2976 RMK A01 T00840034  RH  071%=      5-min Rain = 0
KES1 181516Z 22004KT 08/03 A2976 RMK A01 T00840033  RH  070%=      5-min Rain = 0
KES1 181517Z 21005KT 08/03 A2975 RMK A01 T00840033  RH  070%=      5-min Rain = 0
KES1 181518Z 22005KT 09/03 A2975 RMK A01 T00850033  RH  070%=      5-min Rain = 0
KES1 181519Z 22004KT 09/03 A2975 RMK A01 T00850034  RH  070%=      5-min Rain = 0
KES1 181520Z 21004KT 09/03 A2975 RMK A01 T00850033  RH  070%=      5-min Rain = 0
KES1 181521Z 21005KT 09/03 A2975 RMK A01 T00860033  RH  070%=      5-min Rain = 0
KES1 181522Z 20006KT 09/03 A2975 RMK A01 T00860033  RH  069%=      5-min Rain = 0
KES1 181523Z 20006KT 09/03 A2975 RMK A01 T00860033  RH  069%=      5-min Rain = 0
KES1 181524Z 20007KT 09/03 A2975 RMK A01 T00870034  RH  069%=      5-min Rain = 0
KES1 181525Z 19008KT 09/03 A2975 RMK A01 T00870034  RH  070%=      5-min Rain = 0
KES1 181526Z 19009KT 09/03 A2975 RMK A01 T00870034  RH  069%=      5-min Rain = 0
KES1 181527Z 19008KT 09/04 A2975 RMK A01 T00870035  RH  069%=      5-min Rain = 0
KES1 181528Z 19008KT 09/03 A2975 RMK A01 T00880034  RH  069%=      5-min Rain = 0
KES1 181529Z 19006KT 09/03 A2975 RMK A01 T00880034  RH  069%=      5-min Rain = 0
KES1 181530Z 19005KT 09/03 A2975 RMK A01 T00890033  RH  068%=      5-min Rain = 0
KES1 181531Z 18005KT 09/03 A2975 RMK A01 T00900034  RH  068%=      5-min Rain = 0
KES1 181532Z 19005KT 09/03 A2975 RMK A01 T00900034  RH  068%=      5-min Rain = 0
KES1 181533Z 20003KT 09/03 A2975 RMK A01 T00900034  RH  068%=      5-min Rain = 0
KES1 181534Z 21002KT 09/03 A2975 RMK A01 T00910034  RH  068%=      5-min Rain = 0
KES1 181535Z 20001KT 09/04 A2975 RMK A01 T00910035  RH  068%=      5-min Rain = 0
KES1 181536Z 23000KT 09/04 A2975 RMK A01 T00910035  RH  068%=      5-min Rain = 0
KES1 181537Z 30000KT 09/04 A2975 RMK A01 T00920036  RH  068%=      5-min Rain = 0
KES1 181538Z 27001KT 09/03 A2975 RMK A01 T00920034  RH  067%=      5-min Rain = 0
KES1 181539Z 24000KT 09/03 A2975 RMK A01 T00930032  RH  066%=      5-min Rain = 0
KES1 181540Z 25000KT 09/03 A2975 RMK A01 T00930033  RH  066%=      5-min Rain = 0
KES1 181541Z 28000KT 09/04 A2975 RMK A01 T00940035  RH  066%=      5-min Rain = 0
KES1 181542Z 30000KT 09/04 A2975 RMK A01 T00940035  RH  067%=      5-min Rain = 0
KES1 181543Z 22001KT 10/04 A2975 RMK A01 T00950037  RH  067%=      5-min Rain = 0
KES1 181544Z 19001KT 10/04 A2975 RMK A01 T00960036  RH  066%=      5-min Rain = 0
KES1 181545Z 15002KT 10/04 A2975 RMK A01 T00970037  RH  067%=      5-min Rain = 0
KES1 181546Z 14002KT 10/04 A2974 RMK A01 T00970038  RH  066%=      5-min Rain = 0
KES1 181547Z 14003KT 10/04 A2974 RMK A01 T00970038  RH  067%=      5-min Rain = 0
KES1 181548Z 15003KT 10/04 A2974 RMK A01 T00980041  RH  068%=      5-min Rain = 0
KES1 181549Z 14004KT 10/04 A2974 RMK A01 T00980040  RH  067%=      5-min Rain = 0
KES1 181550Z 15004KT 10/04 A2974 RMK A01 T00990041  RH  067%=      5-min Rain = 0
KES1 181551Z 16004KT 10/04 A2974 RMK A01 T00990041  RH  067%=      5-min Rain = 0
KES1 181552Z 16005KT 10/04 A2974 RMK A01 T01000040  RH  066%=      5-min Rain = 0
KES1 181553Z 17005KT 10/04 A2974 RMK A01 T01010040  RH  066%=      5-min Rain = 0
KES1 181554Z 17005KT 10/04 A2974 RMK A01 T01010040  RH  066%=      5-min Rain = 0
KES1 181555Z 17005KT 10/04 A2974 RMK A01 T01020041  RH  066%=      5-min Rain = 0
KES1 181556Z 16005KT 10/04 A2974 RMK A01 T01020042  RH  066%=      5-min Rain = 0
KES1 181557Z 17005KT 10/04 A2974 RMK A01 T01030041  RH  065%=      5-min Rain = 0
KES1 181558Z 18005KT 10/04 A2974 RMK A01 T01040043  RH  066%=      5-min Rain = 0
KES1 181559Z 18005KT 10/04 A2974 RMK A01 T01040042  RH  065%=      5-min Rain = 0
KES1 181600Z 19006KT 11/04 A2974 RMK A01 T01050043  RH  065%=      5-min Rain = 0
KES1 181601Z 19008KT 11/04 A2974 RMK A01 T01060041  RH  064%=      5-min Rain = 0
KES1 181602Z 19007KT 11/04 A2974 RMK A01 T01060039  RH  063%=      5-min Rain = 0
KES1 181603Z 19007KT 11/04 A2974 RMK A01 T01070040  RH  063%=      5-min Rain = 0
KES1 181604Z 20007KT 11/04 A2974 RMK A01 T01070037  RH  062%=      5-min Rain = 0
KES1 181605Z 20008KT 11/04 A2974 RMK A01 T01070037  RH  062%=      5-min Rain = 0
KES1 181606Z 20007KT 11/04 A2974 RMK A01 T01080037  RH  061%=      5-min Rain = 0
KES1 181607Z 20008KT 11/04 A2974 RMK A01 T01090036  RH  061%=      5-min Rain = 0
KES1 181608Z 20008KT 11/03 A2974 RMK A01 T01090034  RH  060%=      5-min Rain = 0
KES1 181609Z 20009KT 11/03 A2973 RMK A01 T01100034  RH  060%=      5-min Rain = 0
KES1 181610Z 20009KT 11/03 A2973 RMK A01 T01100033  RH  059%=      5-min Rain = 0
KES1 181611Z 21009KT 11/03 A2974 RMK A01 T01110032  RH  058%=      5-min Rain = 0
KES1 181612Z 20009KT 11/03 A2974 RMK A01 T01120032  RH  058%=      5-min Rain = 0
KES1 181613Z 21009KT 11/03 A2974 RMK A01 T01130032  RH  058%=      5-min Rain = 0
KES1 181614Z 21010KT 11/03 A2974 RMK A01 T01130032  RH  057%=      5-min Rain = 0
KES1 181615Z 22009KT 11/03 A2974 RMK A01 T01140031  RH  057%=      5-min Rain = 0
KES1 181616Z 22009KT 12/03 A2974 RMK A01 T01150031  RH  056%=      5-min Rain = 0
KES1 181617Z 21008KT 12/03 A2974 RMK A01 T01150031  RH  056%=      5-min Rain = 0
KES1 181618Z 22007KT 12/03 A2974 RMK A01 T01160032  RH  056%=      5-min Rain = 0
KES1 181619Z 22008KT 12/03 A2974 RMK A01 T01170033  RH  056%=      5-min Rain = 0
KES1 181620Z 22008KT 12/03 A2974 RMK A01 T01180031  RH  055%=      5-min Rain = 0
KES1 181621Z 22009KT 12/03 A2973 RMK A01 T01190030  RH  055%=      5-min Rain = 0
KES1 181622Z 22009KT 12/03 A2973 RMK A01 T01200029  RH  054%=      5-min Rain = 0
KES1 181623Z 22009KT 12/03 A2973 RMK A01 T01210029  RH  053%=      5-min Rain = 0
KES1 181624Z 22009KT 12/03 A2973 RMK A01 T01210028  RH  053%=      5-min Rain = 0
KES1 181625Z 22008KT 12/03 A2973 RMK A01 T01220027  RH  052%=      5-min Rain = 0
KES1 181626Z 22009KT 12/03 A2973 RMK A01 T01230027  RH  052%=      5-min Rain = 0
KES1 181627Z 22010KT 12/03 A2973 RMK A01 T01240027  RH  051%=      5-min Rain = 0
KES1 181628Z 22010KT 12/03 A2973 RMK A01 T01240026  RH  051%=      5-min Rain = 0
KES1 181629Z 21008KT 12/03 A2973 RMK A01 T01240025  RH  051%=      5-min Rain = 0
KES1 181630Z 21009KT 13/03 A2973 RMK A01 T01250025  RH  051%=      5-min Rain = 0
KES1 181631Z 21010KT 13/03 A2973 RMK A01 T01250025  RH  051%=      5-min Rain = 0
KES1 181632Z 22009KT 13/03 A2973 RMK A01 T01260025  RH  050%=      5-min Rain = 0
KES1 181633Z 21009KT 13/03 A2973 RMK A01 T01260025  RH  050%=      5-min Rain = 0
KES1 181634Z 21009KT 13/03 A2973 RMK A01 T01260026  RH  051%=      5-min Rain = 0
KES1 181635Z 21010KT 13/03 A2973 RMK A01 T01260026  RH  050%=      5-min Rain = 0
KES1 181636Z 21009KT 13/03 A2972 RMK A01 T01260025  RH  050%=      5-min Rain = 0
KES1 181637Z 21009KT 13/03 A2972 RMK A01 T01270026  RH  050%=      5-min Rain = 0
KES1 181638Z 21010KT 13/03 A2972 RMK A01 T01270025  RH  050%=      5-min Rain = 0
KES1 181639Z 21010KT 13/03 A2972 RMK A01 T01270025  RH  050%=      5-min Rain = 0
KES1 181640Z 21009KT 13/02 A2972 RMK A01 T01270024  RH  050%=      5-min Rain = 0
KES1 181641Z 21010KT 13/03 A2972 RMK A01 T01280026  RH  050%=      5-min Rain = 0
KES1 181642Z 21009KT 13/03 A2972 RMK A01 T01280025  RH  050%=      5-min Rain = 0
KES1 181643Z 21009KT 13/03 A2972 RMK A01 T01290026  RH  050%=      5-min Rain = 0
KES1 181644Z 20008KT 13/03 A2972 RMK A01 T01280025  RH  049%=      5-min Rain = 0
KES1 181645Z 21009KT 13/03 A2972 RMK A01 T01280025  RH  049%=      5-min Rain = 0
KES1 181646Z 21009KT 13/03 A2972 RMK A01 T01280026  RH  050%=      5-min Rain = 0
KES1 181647Z 20010KT 13/02 A2972 RMK A01 T01290024  RH  049%=      5-min Rain = 0
KES1 181648Z 20010KT 13/03 A2972 RMK A01 T01290025  RH  049%=      5-min Rain = 0
KES1 181649Z 20010KT 13/03 A2972 RMK A01 T01290025  RH  049%=      5-min Rain = 0
KES1 181650Z 20011KT 13/02 A2972 RMK A01 T01290024  RH  049%=      5-min Rain = 0
KES1 181651Z 20012KT 13/02 A2972 RMK A01 T01300024  RH  049%=      5-min Rain = 0
KES1 181652Z 19011KT 13/02 A2972 RMK A01 T01300024  RH  048%=      5-min Rain = 0
KES1 181653Z 20011KT 13/02 A2972 RMK A01 T01310023  RH  048%=      5-min Rain = 0
KES1 181654Z 19012KT 13/02 A2971 RMK A01 T01320023  RH  048%=      5-min Rain = 0
KES1 181655Z 20010KT 13/02 A2972 RMK A01 T01330023  RH  047%=      5-min Rain = 0
KES1 181656Z 20010KT 13/02 A2971 RMK A01 T01340024  RH  047%=      5-min Rain = 0
KES1 181657Z 19011KT 14/02 A2971 RMK A01 T01350024  RH  047%=      5-min Rain = 0
KES1 181658Z 19010KT 14/02 A2971 RMK A01 T01360024  RH  047%=      5-min Rain = 0
KES1 181659Z 19011KT 14/03 A2971 RMK A01 T01370025  RH  047%=      5-min Rain = 0
KES1 181700Z 20010KT 14/02 A2971 RMK A01 T01380024  RH  046%=      5-min Rain = 0
KES1 181701Z 19008KT 14/02 A2971 RMK A01 T01390024  RH  046%=      5-min Rain = 0
KES1 181702Z 19008KT 14/03 A2971 RMK A01 T01400027  RH  047%=      5-min Rain = 0
KES1 181703Z 18009KT 14/03 A2971 RMK A01 T01400029  RH  047%=      5-min Rain = 0
KES1 181704Z 19009KT 14/03 A2971 RMK A01 T01400029  RH  047%=      5-min Rain = 0
KES1 181705Z 19008KT 14/03 A2971 RMK A01 T01390030  RH  048%=      5-min Rain = 0
KES1 181706Z 18011KT 14/03 A2971 RMK A01 T01390033  RH  049%=      5-min Rain = 0
KES1 181707Z 18009KT 14/03 A2971 RMK A01 T01380033  RH  049%=      5-min Rain = 0
KES1 181708Z 19010KT 14/03 A2971 RMK A01 T01360033  RH  049%=      5-min Rain = 0
KES1 181709Z 19011G16KT 14/03 A2971 RMK A01 T01360034  RH  050%=      5-min Rain = 0
KES1 181710Z 19009KT 14/03 A2971 RMK A01 T01360032  RH  049%=      5-min Rain = 0
KES1 181711Z 18009KT 14/03 A2971 RMK A01 T01360033  RH  050%=      5-min Rain = 0
KES1 181712Z 18010KT 14/03 A2971 RMK A01 T01360032  RH  049%=      5-min Rain = 0
KES1 181713Z 18011KT 14/03 A2971 RMK A01 T01370032  RH  049%=      5-min Rain = 0
KES1 181714Z 19012KT 14/03 A2971 RMK A01 T01380032  RH  049%=      5-min Rain = 0
KES1 181715Z 19011KT 14/03 A2971 RMK A01 T01390032  RH  048%=      5-min Rain = 0
KES1 181716Z 18013KT 14/03 A297 RMK A01 T01390031  RH  048%=      5-min Rain = 0
KES1 181717Z 18009KT 14/03 A297 RMK A01 T01400031  RH  048%=      5-min Rain = 0
KES1 181718Z 19012KT 14/03 A297 RMK A01 T01410030  RH  047%=      5-min Rain = 0
KES1 181719Z 19013KT 14/03 A297 RMK A01 T01430029  RH  046%=      5-min Rain = 0
KES1 181720Z 19010KT 14/03 A297 RMK A01 T01440029  RH  046%=      5-min Rain = 0
KES1 181721Z 19013KT 15/03 A297 RMK A01 T01460029  RH  045%=      5-min Rain = 0
KES1 181722Z 19013KT 15/03 A297 RMK A01 T01470027  RH  044%=      5-min Rain = 0
KES1 181723Z 20012KT 15/03 A2969 RMK A01 T01490028  RH  044%=      5-min Rain = 0
KES1 181724Z 20012KT 15/03 A2969 RMK A01 T01520029  RH  044%=      5-min Rain = 0
KES1 181725Z 20012KT 16/03 A2969 RMK A01 T01550030  RH  043%=      5-min Rain = 0
KES1 181726Z 20014KT 16/03 A2969 RMK A01 T01590030  RH  042%=      5-min Rain = 0
KES1 181727Z 20012KT 16/03 A2969 RMK A01 T01620032  RH  042%=      5-min Rain = 0
KES1 181728Z 20011KT 17/03 A2968 RMK A01 T01650032  RH  041%=      5-min Rain = 0
KES1 181729Z 21009KT 17/03 A2968 RMK A01 T01690032  RH  040%=      5-min Rain = 0
KES1 181730Z 21013KT 17/03 A2968 RMK A01 T01730033  RH  039%=      5-min Rain = 0
KES1 181731Z 20012KT 18/03 A2968 RMK A01 T01750030  RH  038%=      5-min Rain = 0
KES1 181732Z 20010G15KT 18/03 A2968 RMK A01 T01760030  RH  038%=      5-min Rain = 0
KES1 181733Z 21011KT 18/03 A2968 RMK A01 T01790032  RH  037%=      5-min Rain = 0
KES1 181734Z 21012KT 18/03 A2968 RMK A01 T01820030  RH  036%=      5-min Rain = 0
KES1 181735Z 20012G17KT 18/03 A2968 RMK A01 T01830028  RH  035%=      5-min Rain = 0
KES1 181736Z 20014KT 18/03 A2967 RMK A01 T01830025  RH  035%=      5-min Rain = 0
KES1 181737Z 20017KT 18/02 A2967 RMK A01 T01830024  RH  035%=      5-min Rain = 0
KES1 181738Z 21017KT 18/02 A2967 RMK A01 T01820023  RH  035%=      5-min Rain = 0
KES1 181739Z 21011KT 18/02 A2967 RMK A01 T01810024  RH  035%=      5-min Rain = 0
KES1 181740Z 20013KT 18/03 A2967 RMK A01 T01840027  RH  035%=      5-min Rain = 0
KES1 181741Z 20012KT 19/03 A2967 RMK A01 T01850026  RH  035%=      5-min Rain = 0
KES1 181742Z 21013KT 19/03 A2967 RMK A01 T01880027  RH  034%=      5-min Rain = 0
KES1 181743Z 21013KT 19/03 A2967 RMK A01 T01890025  RH  033%=      5-min Rain = 0
KES1 181744Z 20014G20KT 19/03 A2967 RMK A01 T01890026  RH  034%=      5-min Rain = 0
KES1 181745Z 20010KT 19/03 A2967 RMK A01 T01900027  RH  034%=      5-min Rain = 0
KES1 181746Z 19012KT 19/03 A2967 RMK A01 T01900031  RH  035%=      5-min Rain = 0
KES1 181747Z 20010G15KT 19/03 A2967 RMK A01 T01900034  RH  035%=      5-min Rain = 0
KES1 181748Z 21013KT 19/03 A2967 RMK A01 T01910034  RH  035%=      5-min Rain = 0
KES1 181749Z 21012KT 19/03 A2966 RMK A01 T01910031  RH  035%=      5-min Rain = 0
KES1 181750Z 21012KT 19/03 A2966 RMK A01 T01890029  RH  035%=      5-min Rain = 0
KES1 181751Z 20010KT 19/03 A2966 RMK A01 T01880031  RH  035%=      5-min Rain = 0
KES1 181752Z 20011KT 19/03 A2966 RMK A01 T01890031  RH  035%=      5-min Rain = 0
KES1 181753Z 19014KT 19/03 A2966 RMK A01 T01900031  RH  035%=      5-min Rain = 0
KES1 181754Z 20014KT 19/03 A2966 RMK A01 T01900030  RH  034%=      5-min Rain = 0
KES1 181755Z 21013KT 19/03 A2966 RMK A01 T01900030  RH  035%=      5-min Rain = 0
KES1 181756Z 19013G18KT 19/03 A2966 RMK A01 T01900031  RH  035%=      5-min Rain = 0
KES1 181757Z 18013KT 19/03 A2966 RMK A01 T01900030  RH  035%=      5-min Rain = 0
KES1 181758Z 19014KT 19/03 A2966 RMK A01 T01910032  RH  035%=      5-min Rain = 0
KES1 181759Z 20013KT 19/03 A2966 RMK A01 T01920031  RH  034%=      5-min Rain = 0
KES1 181800Z 20013KT 19/03 A2965 RMK A01 T01930030  RH  034%=      5-min Rain = 0
KES1 181801Z 22013KT 19/03 A2966 RMK A01 T01940030  RH  034%=      5-min Rain = 0
KES1 181802Z 21009G15KT 20/03 A2965 RMK A01 T01960031  RH  034%=      5-min Rain = 0
KES1 181803Z 21010KT 20/03 A2965 RMK A01 T01990033  RH  033%=      5-min Rain = 0
KES1 181804Z 20006KT 20/03 A2965 RMK A01 T02010032  RH  033%=      5-min Rain = 0
KES1 181805Z 17008KT 20/03 A2965 RMK A01 T02030032  RH  032%=      5-min Rain = 0
KES1 181806Z 19012G17KT 21/03 A2965 RMK A01 T02050032  RH  032%=      5-min Rain = 0
KES1 181807Z 20014KT 21/03 A2964 RMK A01 T02070029  RH  031%=      5-min Rain = 0
KES1 181808Z 21011KT 21/03 A2964 RMK A01 T02060029  RH  031%=      5-min Rain = 0
KES1 181809Z 22013KT 21/03 A2965 RMK A01 T02080031  RH  031%=      5-min Rain = 0
KES1 181810Z 24015G20KT 21/03 A2964 RMK A01 T02110033  RH  031%=      5-min Rain = 0
KES1 181811Z 25017KT 22/03 A2964 RMK A01 T02160031  RH  030%=      5-min Rain = 0
KES1 181812Z 25018G27KT 22/03 A2964 RMK A01 T02220033  RH  029%=      5-min Rain = 0
KES1 181813Z 24022G28KT 23/03 A2963 RMK A01 T02290029  RH  027%=      5-min Rain = 0
KES1 181814Z 24024G30KT 23/03 A2964 RMK A01 T02320029  RH  026%=      5-min Rain = 0
KES1 181815Z 24024G32KT 23/03 A2964 RMK A01 T02330026  RH  026%=      5-min Rain = 0
KES1 181816Z 26023G29KT 23/03 A2964 RMK A01 T02340026  RH  026%=      5-min Rain = 0
KES1 181817Z 26019KT 23/03 A2964 RMK A01 T02340026  RH  026%=      5-min Rain = 0
KES1 181818Z 25020G29KT 24/03 A2964 RMK A01 T02370028  RH  026%=      5-min Rain = 0
KES1 181819Z 25023G28KT 24/03 A2964 RMK A01 T02380025  RH  025%=      5-min Rain = 0
KES1 181820Z 25025G30KT 24/03 A2964 RMK A01 T02370025  RH  025%=      5-min Rain = 0
KES1 181821Z 26021G30KT 24/03 A2963 RMK A01 T02370025  RH  025%=      5-min Rain = 0
KES1 181822Z 26021G26KT 24/02 A2963 RMK A01 T02380024  RH  025%=      5-min Rain = 0
KES1 181823Z 26025G33KT 24/02 A2963 RMK A01 T02390024  RH  024%=      5-min Rain = 0
KES1 181824Z 26024G31KT 24/02 A2963 RMK A01 T02390022  RH  024%=      5-min Rain = 0
KES1 181825Z 26022G27KT 24/02 A2963 RMK A01 T02390023  RH  024%=      5-min Rain = 0
KES1 181826Z 25022G31KT 24/02 A2963 RMK A01 T02400023  RH  024%=      5-min Rain = 0
KES1 181827Z 26025G30KT 24/02 A2963 RMK A01 T02400022  RH  024%=      5-min Rain = 0
KES1 181828Z 25027G33KT 24/02 A2962 RMK A01 T02390021  RH  024%=      5-min Rain = 0
KES1 181829Z 25023G28KT 24/02 A2962 RMK A01 T02370021  RH  024%=      5-min Rain = 0
KES1 181830Z 26022G29KT 24/02 A2962 RMK A01 T02360021  RH  024%=      5-min Rain = 0
KES1 181831Z 25018G25KT 24/02 A2962 RMK A01 T02360022  RH  025%=      5-min Rain = 0
KES1 181832Z 25026G31KT 24/02 A2962 RMK A01 T02390020  RH  024%=      5-min Rain = 0
KES1 181833Z 25029KT 24/02 A2962 RMK A01 T02370018  RH  024%=      5-min Rain = 0
KES1 181834Z 25020G31KT 24/02 A2961 RMK A01 T02360018  RH  024%=      5-min Rain = 0
KES1 181835Z 26028G33KT 24/02 A2962 RMK A01 T02350018  RH  024%=      5-min Rain = 0
KES1 181836Z 26021KT 23/02 A2961 RMK A01 T02320017  RH  024%=      5-min Rain = 0
KES1 181837Z 25020G25KT 23/02 A2962 RMK A01 T02310019  RH  025%=      5-min Rain = 0
KES1 181838Z 25023G28KT 23/02 A2962 RMK A01 T02310018  RH  025%=      5-min Rain = 0
KES1 181839Z 25023G28KT 23/02 A2962 RMK A01 T02290015  RH  024%=      5-min Rain = 0
KES1 181840Z 25024G30KT 23/02 A2962 RMK A01 T02280016  RH  025%=      5-min Rain = 0
KES1 181841Z 25023G31KT 23/02 A2962 RMK A01 T02280016  RH  025%=      5-min Rain = 0
KES1 181842Z 25022G28KT 23/02 A2961 RMK A01 T02280016  RH  025%=      5-min Rain = 0
KES1 181843Z 25023G30KT 23/02 A2961 RMK A01 T02280016  RH  025%=      5-min Rain = 0
KES1 181844Z 25026G32KT 23/02 A2961 RMK A01 T02280016  RH  025%=      5-min Rain = 0
KES1 181845Z 25025G31KT 23/02 A2961 RMK A01 T02280015  RH  025%=      5-min Rain = 0
KES1 181846Z 25019G24KT 23/02 A2961 RMK A01 T02280016  RH  025%=      5-min Rain = 0
KES1 181847Z 25026G34KT 23/02 A2961 RMK A01 T02270016  RH  025%=      5-min Rain = 0
KES1 181848Z 25022G29KT 23/02 A2961 RMK A01 T02280016  RH  025%=      5-min Rain = 0
KES1 181849Z 25026G33KT 23/02 A2961 RMK A01 T02300017  RH  025%=      5-min Rain = 0
KES1 181850Z 25027G34KT 23/02 A296 RMK A01 T02290016  RH  025%=      5-min Rain = 0
KES1 181851Z 24025G33KT 23/02 A296 RMK A01 T02270015  RH  025%=      5-min Rain = 0
KES1 181852Z 25025KT 23/02 A296 RMK A01 T02250015  RH  025%=      5-min Rain = 0
KES1 181853Z 26023G31KT 23/02 A296 RMK A01 T02250015  RH  025%=      5-min Rain = 0
KES1 181854Z 25020G29KT 23/02 A296 RMK A01 T02280018  RH  025%=      5-min Rain = 0
KES1 181855Z 25025G30KT 23/02 A296 RMK A01 T02330019  RH  024%=      5-min Rain = 0
KES1 181856Z 25022G33KT 24/02 A296 RMK A01 T02360018  RH  024%=      5-min Rain = 0
KES1 181857Z 25029G37KT 24/02 A296 RMK A01 T02380016  RH  023%=      5-min Rain = 0
KES1 181858Z 25020G29KT 24/02 A296 RMK A01 T02370016  RH  023%=      5-min Rain = 0
KES1 181859Z 26025G31KT 24/02 A296 RMK A01 T02380017  RH  023%=      5-min Rain = 0
KES1 181900Z 26021G26KT 24/02 A296 RMK A01 T02370015  RH  023%=      5-min Rain = 0
KES1 181901Z 26023G29KT 23/01 A296 RMK A01 T02330014  RH  024%=      5-min Rain = 0
KES1 181902Z 26021KT 23/01 A296 RMK A01 T02310014  RH  024%=      5-min Rain = 0
KES1 181903Z 27025G31KT 23/02 A296 RMK A01 T02300015  RH  024%=      5-min Rain = 0
KES1 181904Z 26023G30KT 23/01 A2959 RMK A01 T02290014  RH  024%=      5-min Rain = 0
KES1 181905Z 26020G27KT 23/02 A2959 RMK A01 T02290015  RH  024%=      5-min Rain = 0
KES1 181906Z 26018G24KT 23/02 A2959 RMK A01 T02310016  RH  024%=      5-min Rain = 0
KES1 181907Z 26021G28KT 24/02 A2959 RMK A01 T02350018  RH  024%=      5-min Rain = 0
KES1 181908Z 27023KT 24/02 A2959 RMK A01 T02360017  RH  024%=      5-min Rain = 0
KES1 181909Z 27022KT 24/02 A2959 RMK A01 T02360017  RH  024%=      5-min Rain = 0
KES1 181910Z 27020G25KT 24/02 A2958 RMK A01 T02360018  RH  024%=      5-min Rain = 0
KES1 181911Z 26019G24KT 24/02 A2958 RMK A01 T02370019  RH  024%=      5-min Rain = 0
KES1 181912Z 27019KT 24/02 A2958 RMK A01 T02380018  RH  024%=      5-min Rain = 0
KES1 181913Z 27022G27KT 24/02 A2958 RMK A01 T02370017  RH  024%=      5-min Rain = 0
KES1 181914Z 27023G28KT 24/02 A2958 RMK A01 T02380019  RH  024%=      5-min Rain = 0
KES1 181915Z 25024G31KT 24/02 A2958 RMK A01 T02400017  RH  023%=      5-min Rain = 0
KES1 181916Z 26022KT 24/02 A2958 RMK A01 T02390015  RH  023%=      5-min Rain = 0
KES1 181917Z 25025KT 24/02 A2958 RMK A01 T02390016  RH  023%=      5-min Rain = 0
KES1 181918Z 26023G34KT 24/02 A2958 RMK A01 T02380016  RH  023%=      5-min Rain = 0
KES1 181919Z 26023G30KT 24/02 A2958 RMK A01 T02390016  RH  023%=      5-min Rain = 0
KES1 181920Z 25019G27KT 24/02 A2959 RMK A01 T02380016  RH  023%=      5-min Rain = 0
KES1 181921Z 25015KT 24/02 A2958 RMK A01 T02400017  RH  023%=      5-min Rain = 0
KES1 181922Z 25022G30KT 24/02 A2958 RMK A01 T02420017  RH  023%=      5-min Rain = 0
KES1 181923Z 26023G32KT 24/02 A2958 RMK A01 T02410015  RH  023%=      5-min Rain = 0
KES1 181924Z 25027KT 24/01 A2958 RMK A01 T02390014  RH  023%=      5-min Rain = 0
KES1 181925Z 25027KT 24/01 A2958 RMK A01 T02380013  RH  023%=      5-min Rain = 0
KES1 181926Z 26019G27KT 24/01 A2958 RMK A01 T02360013  RH  023%=      5-min Rain = 0
KES1 181927Z 25020G25KT 24/02 A2958 RMK A01 T02380016  RH  023%=      5-min Rain = 0
KES1 181928Z 25022G31KT 24/02 A2958 RMK A01 T02400015  RH  023%=      5-min Rain = 0
KES1 181929Z 25021G27KT 24/01 A2958 RMK A01 T02400014  RH  023%=      5-min Rain = 0
KES1 181930Z 25025KT 24/02 A2958 RMK A01 T02400015  RH  023%=      5-min Rain = 0
KES1 181931Z 25027G34KT 24/01 A2958 RMK A01 T02390013  RH  023%=      5-min Rain = 0
KES1 181932Z 25023G28KT 24/01 A2958 RMK A01 T02370012  RH  023%=      5-min Rain = 0
KES1 181933Z 24024G29KT 24/01 A2958 RMK A01 T02360012  RH  023%=      5-min Rain = 0
KES1 181934Z 25020KT 24/01 A2958 RMK A01 T02360013  RH  023%=      5-min Rain = 0
KES1 181935Z 24021G26KT 24/01 A2958 RMK A01 T02380014  RH  023%=      5-min Rain = 0
KES1 181936Z 25025G31KT 24/02 A2958 RMK A01 T02390015  RH  023%=      5-min Rain = 0
KES1 181937Z 25026G31KT 24/01 A2957 RMK A01 T02390013  RH  023%=      5-min Rain = 0
KES1 181938Z 25023G28KT 24/01 A2957 RMK A01 T02370012  RH  023%=      5-min Rain = 0
KES1 181939Z 25022G27KT 24/01 A2957 RMK A01 T02360011  RH  023%=      5-min Rain = 0
KES1 181940Z 24022G27KT 24/01 A2957 RMK A01 T02370013  RH  023%=      5-min Rain = 0
KES1 181941Z 25020G27KT 24/01 A2957 RMK A01 T02390013  RH  023%=      5-min Rain = 0
KES1 181942Z 25022G29KT 24/01 A2957 RMK A01 T02390012  RH  022%=      5-min Rain = 0
KES1 181943Z 26022G28KT 24/01 A2957 RMK A01 T02380009  RH  022%=      5-min Rain = 0
KES1 181944Z 26021G26KT 24/01 A2957 RMK A01 T02350010  RH  023%=      5-min Rain = 0
KES1 181945Z 26024G31KT 24/01 A2956 RMK A01 T02350010  RH  023%=      5-min Rain = 0
KES1 181946Z 26021KT 24/01 A2956 RMK A01 T02350008  RH  022%=      5-min Rain = 0
KES1 181947Z 25021G27KT 24/01 A2956 RMK A01 T02360008  RH  022%=      5-min Rain = 0
KES1 181948Z 27020G25KT 24/01 A2956 RMK A01 T02370009  RH  022%=      5-min Rain = 0
KES1 181949Z 27023G28KT 24/01 A2956 RMK A01 T02370008  RH  022%=      5-min Rain = 0
KES1 181950Z 27021G27KT 24/01 A2956 RMK A01 T02370009  RH  022%=      5-min Rain = 0
KES1 181951Z 27019KT 24/01 A2956 RMK A01 T02370009  RH  022%=      5-min Rain = 0
KES1 181952Z 26022G28KT 24/01 A2956 RMK A01 T02380010  RH  022%=      5-min Rain = 0
KES1 181953Z 26023G31KT 24/01 A2956 RMK A01 T02380010  RH  022%=      5-min Rain = 0
KES1 181954Z 26019G25KT 24/01 A2955 RMK A01 T02380010  RH  022%=      5-min Rain = 0
KES1 181955Z 26018G26KT 24/01 A2955 RMK A01 T02380012  RH  023%=      5-min Rain = 0
KES1 181956Z 25023G30KT 24/01 A2955 RMK A01 T02400011  RH  022%=      5-min Rain = 0
KES1 181957Z 26022G30KT 24/01 A2955 RMK A01 T02380008  RH  022%=      5-min Rain = 0
KES1 181958Z 27020G25KT 24/01 A2955 RMK A01 T02370010  RH  022%=      5-min Rain = 0
KES1 181959Z 27020G26KT 24/01 A2955 RMK A01 T02370007  RH  022%=      5-min Rain = 0
KES1 182000Z 27022G28KT 24/01 A2955 RMK A01 T02370006  RH  022%=      5-min Rain = 0
KES1 182001Z 27017G23KT 24/01 A2955 RMK A01 T02370007  RH  022%=      5-min Rain = 0
KES1 182002Z 26018G24KT 24/01 A2955 RMK A01 T02380009  RH  022%=      5-min Rain = 0
KES1 182003Z 26018G23KT 24/01 A2955 RMK A01 T02390009  RH  022%=      5-min Rain = 0
KES1 182004Z 25017G23KT 24/01 A2955 RMK A01 T02390010  RH  022%=      5-min Rain = 0
KES1 182005Z 24019G27KT 24/01 A2955 RMK A01 T02390009  RH  022%=      5-min Rain = 0
KES1 182006Z 25019G24KT 24/01 A2955 RMK A01 T02390010  RH  022%=      5-min Rain = 0
KES1 182007Z 26023G28KT 24/01 A2955 RMK A01 T02400010  RH  022%=      5-min Rain = 0
KES1 182008Z 26017G24KT 24/01 A2955 RMK A01 T02410010  RH  022%=      5-min Rain = 0
KES1 182009Z 25024KT 24/01 A2955 RMK A01 T02410009  RH  022%=      5-min Rain = 0
KES1 182010Z 25021G26KT 24/00 A2955 RMK A01 T02370004  RH  022%=      5-min Rain = 0
KES1 182011Z 26022G27KT 23/00 A2955 RMK A01 T02340003  RH  022%=      5-min Rain = 0
KES1 182012Z 26021KT 23/01 A2955 RMK A01 T02340005  RH  022%=      5-min Rain = 0
KES1 182013Z 26019G26KT 24/01 A2955 RMK A01 T02350006  RH  022%=      5-min Rain = 0
KES1 182014Z 25020KT 24/01 A2955 RMK A01 T02380010  RH  022%=      5-min Rain = 0
KES1 182015Z 25021G29KT 24/01 A2955 RMK A01 T02410010  RH  022%=      5-min Rain = 0
KES1 182016Z 26023KT 24/01 A2955 RMK A01 T02410010  RH  022%=      5-min Rain = 0
KES1 182017Z 26020G25KT 24/01 A2955 RMK A01 T02410010  RH  022%=      5-min Rain = 0
KES1 182018Z 25021KT 24/01 A2955 RMK A01 T02410009  RH  022%=      5-min Rain = 0
KES1 182019Z 25017G22KT 24/01 A2954 RMK A01 T02400008  RH  022%=      5-min Rain = 0
KES1 182020Z 25022KT 24/01 A2954 RMK A01 T02400009  RH  022%=      5-min Rain = 0
KES1 182021Z 25016KT 24/01 A2955 RMK A01 T02400010  RH  022%=      5-min Rain = 0
KES1 182022Z 26017G23KT 24/01 A2954 RMK A01 T02420010  RH  022%=      5-min Rain = 0
KES1 182023Z 27021G27KT 24/01 A2954 RMK A01 T02430008  RH  021%=      5-min Rain = 0
KES1 182024Z 28024G30KT 24/00 A2954 RMK A01 T02430002  RH  020%=      5-min Rain = 0
KES1 182025Z 26023KT 24/00 A2954 RMK A01 T02420001  RH  020%=      5-min Rain = 0
KES1 182026Z 27017G22KT 24/00 A2954 RMK A01 T02420002  RH  021%=      5-min Rain = 0
KES1 182027Z 27017G26KT 25/01 A2954 RMK A01 T02450006  RH  021%=      5-min Rain = 0
KES1 182028Z 27024KT 25/00 A2954 RMK A01 T02470002  RH  020%=      5-min Rain = 0
KES1 182029Z 26019G24KT 24/00 A2954 RMK A01 T02430002  RH  020%=      5-min Rain = 0
KES1 182030Z 26020G30KT 24/01 A2954 RMK A01 T02420005  RH  021%=      5-min Rain = 0
KES1 182031Z 26024G30KT 24/00 A2954 RMK A01 T02420003  RH  021%=      5-min Rain = 0
KES1 182032Z 26025KT 24/00 A2954 RMK A01 T02400003  RH  021%=      5-min Rain = 0
KES1 182033Z 26022G28KT 24/00 A2954 RMK A01 T02390004  RH  021%=      5-min Rain = 0
KES1 182034Z 26020G26KT 24/01 A2954 RMK A01 T02400006  RH  021%=      5-min Rain = 0
KES1 182035Z 26021G30KT 24/01 A2954 RMK A01 T02420009  RH  022%=      5-min Rain = 0
KES1 182036Z 26025G31KT 24/01 A2954 RMK A01 T02430008  RH  021%=      5-min Rain = 0
KES1 182037Z 27022G27KT 24/01 A2953 RMK A01 T02420010  RH  022%=      5-min Rain = 0
KES1 182038Z 27026G31KT 24/01 A2953 RMK A01 T02420011  RH  022%=      5-min Rain = 0
KES1 182039Z 26024G31KT 24/01 A2953 RMK A01 T02400010  RH  022%=      5-min Rain = 0
KES1 182040Z 26024G30KT 24/01 A2953 RMK A01 T02400010  RH  022%=      5-min Rain = 0
KES1 182041Z 26020KT 24/01 A2953 RMK A01 T02400011  RH  022%=      5-min Rain = 0
KES1 182042Z 27019G25KT 24/01 A2953 RMK A01 T02410013  RH  022%=      5-min Rain = 0
KES1 182043Z 26022G27KT 24/02 A2953 RMK A01 T02430016  RH  023%=      5-min Rain = 0
KES1 182044Z 27024G29KT 24/02 A2953 RMK A01 T02420015  RH  023%=      5-min Rain = 0
KES1 182045Z 27021G26KT 24/02 A2953 RMK A01 T02380016  RH  023%=      5-min Rain = 0
KES1 182046Z 26021G26KT 24/02 A2953 RMK A01 T02380017  RH  023%=      5-min Rain = 0
KES1 182047Z 26018G26KT 24/02 A2953 RMK A01 T02390018  RH  024%=      5-min Rain = 0
KES1 182048Z 26017G23KT 24/02 A2953 RMK A01 T02410019  RH  023%=      5-min Rain = 0
KES1 182049Z 26021KT 24/02 A2953 RMK A01 T02420019  RH  023%=      5-min Rain = 0
KES1 182050Z 27024G29KT 24/02 A2953 RMK A01 T02420017  RH  023%=      5-min Rain = 0
KES1 182051Z 26024G33KT 24/02 A2953 RMK A01 T02390016  RH  023%=      5-min Rain = 0
KES1 182052Z 26020G25KT 24/02 A2953 RMK A01 T02390018  RH  023%=      5-min Rain = 0
KES1 182053Z 26021G26KT 24/02 A2953 RMK A01 T02400018  RH  023%=      5-min Rain = 0
KES1 182054Z 26021G27KT 24/02 A2953 RMK A01 T02390017  RH  023%=      5-min Rain = 0
KES1 182055Z 25024G32KT 24/02 A2953 RMK A01 T02380018  RH  024%=      5-min Rain = 0
KES1 182056Z 25023G30KT 24/02 A2953 RMK A01 T02370016  RH  023%=      5-min Rain = 0
KES1 182057Z 24020G26KT 24/02 A2953 RMK A01 T02350015  RH  024%=      5-min Rain = 0
KES1 182058Z 25021G29KT 23/02 A2953 RMK A01 T02340016  RH  024%=      5-min Rain = 0
KES1 182059Z 25024G31KT 23/01 A2953 RMK A01 T02340012  RH  023%=      5-min Rain = 0
KES1 182100Z 26030KT 23/01 A2953 RMK A01 T02340010  RH  023%=      5-min Rain = 0
KES1 182101Z 26023G33KT 24/01 A2953 RMK A01 T02350009  RH  023%=      5-min Rain = 0
KES1 182102Z 26022KT 24/01 A2953 RMK A01 T02360009  RH  022%=      5-min Rain = 0
KES1 182103Z 25027G33KT 24/01 A2953 RMK A01 T02380006  RH  022%=      5-min Rain = 0
KES1 182104Z 26022G30KT 24/00 A2953 RMK A01 T02370001  RH  021%=      5-min Rain = 0
KES1 182105Z 26023KT 24/00 A2953 RMK A01 T02360002  RH  021%=      5-min Rain = 0
KES1 182106Z 26020KT 24/00 A2953 RMK A01 T02360003  RH  021%=      5-min Rain = 0
KES1 182107Z 27020G25KT 24/00 A2953 RMK A01 T02380003  RH  021%=      5-min Rain = 0
KES1 182108Z 28018KT 24/00 A2953 RMK A01 T02390003  RH  021%=      5-min Rain = 0
KES1 182109Z 26016G21KT 24/00 A2953 RMK A01 T02410004  RH  021%=      5-min Rain = 0
KES1 182110Z 27020G25KT 24/00 A2953 RMK A01 T02430004  RH  021%=      5-min Rain = 0
KES1 182111Z 26021KT 24/00 A2953 RMK A01 T02420003  RH  021%=      5-min Rain = 0
KES1 182112Z 26017G22KT 24/00 A2953 RMK A01 T02420003  RH  021%=      5-min Rain = 0
KES1 182113Z 26018G26KT 24/01 A2953 RMK A01 T02430005  RH  021%=      5-min Rain = 0
KES1 182114Z 26016G26KT 24/00 A2954 RMK A01 T02440004  RH  021%=      5-min Rain = 0
KES1 182115Z 26022G28KT 24/00 A2953 RMK A01 T02440001  RH  020%=      5-min Rain = 0
KES1 182116Z 27022G28KT 24/M00 A2953 RMK A01 T02421004  RH  020%=      5-min Rain = 0
KES1 182117Z 27024G29KT 24/M01 A2953 RMK A01 T02401010  RH  019%=      5-min Rain = 0
KES1 182118Z 27019KT 24/M01 A2953 RMK A01 T02391008  RH  019%=      5-min Rain = 0
KES1 182119Z 28017G24KT 24/M01 A2954 RMK A01 T02401007  RH  020%=      5-min Rain = 0
KES1 182120Z 26017G23KT 24/M01 A2953 RMK A01 T02411005  RH  020%=      5-min Rain = 0
KES1 182121Z 27017KT 24/M00 A2953 RMK A01 T02411003  RH  020%=      5-min Rain = 0
KES1 182122Z 26017KT 24/M00 A2953 RMK A01 T02421003  RH  020%=      5-min Rain = 0
KES1 182123Z 25021G29KT 24/M00 A2953 RMK A01 T02421004  RH  020%=      5-min Rain = 0
KES1 182124Z 26023G28KT 24/M01 A2953 RMK A01 T02401005  RH  020%=      5-min Rain = 0
KES1 182125Z 25022G27KT 24/M01 A2953 RMK A01 T02381006  RH  020%=      5-min Rain = 0
KES1 182126Z 26019G24KT 24/M01 A2953 RMK A01 T02361006  RH  020%=      5-min Rain = 0
KES1 182127Z 27026G32KT 24/M01 A2953 RMK A01 T02361007  RH  020%=      5-min Rain = 0
KES1 182128Z 26020KT 24/M01 A2953 RMK A01 T02351009  RH  020%=      5-min Rain = 0
KES1 182129Z 25023G29KT 23/M01 A2953 RMK A01 T02341010  RH  020%=      5-min Rain = 0
KES1 182130Z 25021G28KT 23/M01 A2953 RMK A01 T02331011  RH  020%=      5-min Rain = 0
KES1 182131Z 27019G26KT 24/M01 A2953 RMK A01 T02351010  RH  020%=      5-min Rain = 0
KES1 182132Z 26019G26KT 24/M01 A2954 RMK A01 T02371008  RH  020%=      5-min Rain = 0
KES1 182133Z 26021G27KT 24/M01 A2953 RMK A01 T02381009  RH  019%=      5-min Rain = 0
KES1 182134Z 25021KT 24/M01 A2954 RMK A01 T02391010  RH  019%=      5-min Rain = 0
KES1 182135Z 26020G26KT 24/M01 A2954 RMK A01 T02391009  RH  019%=      5-min Rain = 0
KES1 182136Z 27022G27KT 24/M01 A2954 RMK A01 T02391007  RH  020%=      5-min Rain = 0
KES1 182137Z 25017G24KT 24/M01 A2954 RMK A01 T02391006  RH  020%=      5-min Rain = 0
KES1 182138Z 26017G22KT 24/M01 A2954 RMK A01 T02391007  RH  020%=      5-min Rain = 0
KES1 182139Z 26020G25KT 24/M01 A2954 RMK A01 T02391005  RH  020%=      5-min Rain = 0
KES1 182140Z 26021G27KT 24/M00 A2954 RMK A01 T02391004  RH  020%=      5-min Rain = 0
KES1 182141Z 25019G24KT 24/M00 A2954 RMK A01 T02371004  RH  020%=      5-min Rain = 0
KES1 182142Z 25021G27KT 24/M00 A2954 RMK A01 T02351004  RH  020%=      5-min Rain = 0
KES1 182143Z 26019G27KT 23/M01 A2954 RMK A01 T02331005  RH  020%=      5-min Rain = 0
KES1 182144Z 26017G22KT 23/M01 A2954 RMK A01 T02321005  RH  021%=      5-min Rain = 0
KES1 182145Z 26021KT 23/M00 A2954 RMK A01 T02331003  RH  021%=      5-min Rain = 0
KES1 182146Z 26019G25KT 23/M00 A2954 RMK A01 T02331003  RH  021%=      5-min Rain = 0
KES1 182147Z 26023G29KT 23/M00 A2954 RMK A01 T02311003  RH  021%=      5-min Rain = 0
KES1 182148Z 26022KT 23/M00 A2954 RMK A01 T02301003  RH  021%=      5-min Rain = 0
KES1 182149Z 26021G27KT 23/M00 A2954 RMK A01 T02291003  RH  021%=      5-min Rain = 0
KES1 182150Z 26019G27KT 23/M00 A2954 RMK A01 T02291001  RH  022%=      5-min Rain = 0
KES1 182151Z 26018G23KT 23/M00 A2954 RMK A01 T02281001  RH  022%=      5-min Rain = 0
KES1 182152Z 26023KT 23/M00 A2954 RMK A01 T02281001  RH  022%=      5-min Rain = 0
KES1 182153Z 25023G30KT 23/M00 A2954 RMK A01 T02281001  RH  022%=      5-min Rain = 0
KES1 182154Z 26024KT 23/M00 A2954 RMK A01 T02271002  RH  022%=      5-min Rain = 0
KES1 182155Z 25021G29KT 23/M00 A2954 RMK A01 T02261002  RH  022%=      5-min Rain = 0
KES1 182156Z 25025G30KT 23/M00 A2954 RMK A01 T02261003  RH  022%=      5-min Rain = 0
KES1 182157Z 25026G32KT 23/M00 A2954 RMK A01 T02261004  RH  022%=      5-min Rain = 0
KES1 182158Z 25025KT 23/M01 A2954 RMK A01 T02261005  RH  022%=      5-min Rain = 0
KES1 182159Z 26024G29KT 23/M00 A2955 RMK A01 T02251004  RH  022%=      5-min Rain = 0
KES1 182200Z 25022KT 22/M00 A2955 RMK A01 T02241003  RH  022%=      5-min Rain = 0
KES1 182201Z 25027G33KT 22/M00 A2955 RMK A01 T02231002  RH  022%=      5-min Rain = 0
KES1 182202Z 25022G28KT 22/M00 A2955 RMK A01 T02221002  RH  023%=      5-min Rain = 0
KES1 182203Z 26023G32KT 22/M00 A2955 RMK A01 T02211001  RH  023%=      5-min Rain = 0
KES1 182204Z 25023G29KT 22/M00 A2955 RMK A01 T02211001  RH  023%=      5-min Rain = 0
KES1 182205Z 26020G25KT 22/M00 A2955 RMK A01 T02211001  RH  023%=      5-min Rain = 0
KES1 182206Z 26017G23KT 22/00 A2955 RMK A01 T022000-0  RH  023%=      5-min Rain = 0
KES1 182207Z 26018KT 22/00 A2955 RMK A01 T02200000  RH  023%=      5-min Rain = 0
KES1 182208Z 25023G31KT 22/00 A2955 RMK A01 T02190000  RH  023%=      5-min Rain = 0
KES1 182209Z 25021G27KT 22/00 A2954 RMK A01 T02190000  RH  023%=      5-min Rain = 0
KES1 182210Z 25023G31KT 22/00 A2955 RMK A01 T02190000  RH  023%=      5-min Rain = 0
KES1 182211Z 25023KT 22/00 A2955 RMK A01 T02180000  RH  023%=      5-min Rain = 0
KES1 182212Z 25020KT 22/00 A2955 RMK A01 T02180001  RH  024%=      5-min Rain = 0
KES1 182213Z 26019G25KT 22/00 A2955 RMK A01 T02170000  RH  024%=      5-min Rain = 0
KES1 182214Z 25021KT 22/00 A2955 RMK A01 T02170001  RH  024%=      5-min Rain = 0
KES1 182215Z 25017G25KT 22/00 A2955 RMK A01 T02170001  RH  024%=      5-min Rain = 0
KES1 182216Z 25022G27KT 22/00 A2955 RMK A01 T02170002  RH  024%=      5-min Rain = 0
KES1 182217Z 25023KT 22/00 A2955 RMK A01 T02160002  RH  024%=      5-min Rain = 0
KES1 182218Z 25023KT 22/00 A2955 RMK A01 T02160003  RH  024%=      5-min Rain = 0
KES1 182219Z 25018G25KT 22/00 A2955 RMK A01 T02160004  RH  024%=      5-min Rain = 0
KES1 182220Z 24019G24KT 22/00 A2955 RMK A01 T02150004  RH  025%=      5-min Rain = 0
KES1 182221Z 25019G25KT 22/01 A2955 RMK A01 T02150005  RH  025%=      5-min Rain = 0
KES1 182222Z 25022G29KT 22/01 A2955 RMK A01 T02150005  RH  025%=      5-min Rain = 0
KES1 182223Z 25023G28KT 22/00 A2955 RMK A01 T02150004  RH  025%=      5-min Rain = 0
KES1 182224Z 25022G27KT 21/00 A2955 RMK A01 T02140004  RH  025%=      5-min Rain = 0
KES1 182225Z 25022G30KT 21/01 A2955 RMK A01 T02140005  RH  025%=      5-min Rain = 0
KES1 182226Z 25019G24KT 21/00 A2955 RMK A01 T02140004  RH  025%=      5-min Rain = 0
KES1 182227Z 25017KT 21/01 A2955 RMK A01 T02130005  RH  025%=      5-min Rain = 0
KES1 182228Z 25018G23KT 21/01 A2955 RMK A01 T02130005  RH  025%=      5-min Rain = 0
KES1 182229Z 25019G24KT 21/01 A2955 RMK A01 T02130005  RH  025%=      5-min Rain = 0
KES1 182230Z 25016G21KT 21/01 A2955 RMK A01 T02120005  RH  025%=      5-min Rain = 0
KES1 182231Z 25018KT 21/01 A2955 RMK A01 T02120006  RH  025%=      5-min Rain = 0
KES1 182232Z 25016KT 21/01 A2955 RMK A01 T02130006  RH  025%=      5-min Rain = 0
KES1 182233Z 25018KT 21/01 A2955 RMK A01 T02120006  RH  025%=      5-min Rain = 0
KES1 182234Z 24017G24KT 21/01 A2955 RMK A01 T02120006  RH  025%=      5-min Rain = 0
KES1 182235Z 25014G21KT 21/01 A2955 RMK A01 T02130007  RH  025%=      5-min Rain = 0
KES1 182236Z 25016G21KT 21/01 A2955 RMK A01 T02130007  RH  025%=      5-min Rain = 0
KES1 182237Z 24017G23KT 21/01 A2955 RMK A01 T02130007  RH  025%=      5-min Rain = 0
KES1 182238Z 25019G24KT 21/01 A2955 RMK A01 T02130008  RH  026%=      5-min Rain = 0
KES1 182239Z 25017G22KT 21/01 A2955 RMK A01 T02130008  RH  026%=      5-min Rain = 0
KES1 182240Z 25015G20KT 21/01 A2955 RMK A01 T02130009  RH  026%=      5-min Rain = 0
KES1 182241Z 25020KT 21/01 A2955 RMK A01 T02130009  RH  026%=      5-min Rain = 0
KES1 182242Z 24017KT 21/01 A2955 RMK A01 T02130008  RH  026%=      5-min Rain = 0
KES1 182243Z 25016KT 21/01 A2955 RMK A01 T02130009  RH  026%=      5-min Rain = 0
KES1 182244Z 25022KT 21/01 A2955 RMK A01 T02130009  RH  026%=      5-min Rain = 0
KES1 182245Z 25021KT 21/01 A2955 RMK A01 T02130007  RH  025%=      5-min Rain = 0
KES1 182246Z 25019G24KT 21/01 A2955 RMK A01 T02130007  RH  026%=      5-min Rain = 0
KES1 182247Z 24019G26KT 21/01 A2955 RMK A01 T02120007  RH  026%=      5-min Rain = 0
KES1 182248Z 25020KT 21/01 A2955 RMK A01 T02120007  RH  026%=      5-min Rain = 0
KES1 182249Z 25021G26KT 21/01 A2955 RMK A01 T02110007  RH  026%=      5-min Rain = 0
KES1 182250Z 25020KT 21/01 A2955 RMK A01 T02110007  RH  026%=      5-min Rain = 0
KES1 182251Z 25017G22KT 21/01 A2955 RMK A01 T02100007  RH  026%=      5-min Rain = 0
KES1 182252Z 25017KT 21/01 A2955 RMK A01 T02100007  RH  026%=      5-min Rain = 0
KES1 182253Z 25016KT 21/01 A2955 RMK A01 T02100007  RH  026%=      5-min Rain = 0
KES1 182254Z 25018KT 21/01 A2955 RMK A01 T02090007  RH  026%=      5-min Rain = 0
KES1 182255Z 25017KT 21/01 A2955 RMK A01 T02090007  RH  026%=      5-min Rain = 0
KES1 182256Z 25019KT 21/01 A2955 RMK A01 T02090007  RH  026%=      5-min Rain = 0
KES1 182257Z 24014KT 21/01 A2955 RMK A01 T02080007  RH  026%=      5-min Rain = 0
KES1 182258Z 24012KT 21/01 A2955 RMK A01 T02070007  RH  026%=      5-min Rain = 0
KES1 182259Z 25014G20KT 21/01 A2955 RMK A01 T02070007  RH  026%=      5-min Rain = 0
KES1 182300Z 25012KT 21/01 A2955 RMK A01 T02060007  RH  027%=      5-min Rain = 0
KES1 182301Z 24013G18KT 21/01 A2955 RMK A01 T02050007  RH  027%=      5-min Rain = 0
KES1 182302Z 24017KT 21/01 A2955 RMK A01 T02050007  RH  027%=      5-min Rain = 0
KES1 182303Z 25013G18KT 21/01 A2955 RMK A01 T02050007  RH  027%=      5-min Rain = 0
KES1 182304Z 25014KT 21/01 A2955 RMK A01 T02050008  RH  027%=      5-min Rain = 0
KES1 182305Z 25015KT 21/01 A2955 RMK A01 T02050008  RH  027%=      5-min Rain = 0
KES1 182306Z 25013KT 21/01 A2955 RMK A01 T02050008  RH  027%=      5-min Rain = 0
KES1 182307Z 25013G18KT 20/01 A2956 RMK A01 T02040008  RH  027%=      5-min Rain = 0
KES1 182308Z 25014G19KT 20/01 A2956 RMK A01 T02040008  RH  027%=      5-min Rain = 0
KES1 182309Z 25013KT 20/01 A2956 RMK A01 T02030008  RH  027%=      5-min Rain = 0
KES1 182310Z 25016KT 20/01 A2956 RMK A01 T02030007  RH  027%=      5-min Rain = 0
KES1 182311Z 25017KT 20/01 A2956 RMK A01 T02030007  RH  027%=      5-min Rain = 0
KES1 182312Z 25017G22KT 20/01 A2955 RMK A01 T02030007  RH  027%=      5-min Rain = 0
KES1 182313Z 26014KT 20/01 A2956 RMK A01 T02030006  RH  027%=      5-min Rain = 0
KES1 182314Z 25016G22KT 20/01 A2956 RMK A01 T02020007  RH  027%=      5-min Rain = 0
KES1 182315Z 26017KT 20/01 A2956 RMK A01 T02020006  RH  027%=      5-min Rain = 0
KES1 182316Z 25019KT 20/01 A2955 RMK A01 T02020005  RH  027%=      5-min Rain = 0
KES1 182317Z 25018KT 20/01 A2955 RMK A01 T02030005  RH  027%=      5-min Rain = 0
KES1 182318Z 25015KT 20/01 A2955 RMK A01 T02030005  RH  027%=      5-min Rain = 0
KES1 182319Z 26018KT 20/01 A2956 RMK A01 T02030005  RH  027%=      5-min Rain = 0
KES1 182320Z 26013G18KT 20/01 A2956 RMK A01 T02030005  RH  027%=      5-min Rain = 0
KES1 182321Z 26013KT 20/01 A2956 RMK A01 T02020006  RH  027%=      5-min Rain = 0
KES1 182322Z 26017KT 20/01 A2956 RMK A01 T02010005  RH  027%=      5-min Rain = 0
KES1 182323Z 26015KT 20/01 A2956 RMK A01 T02010005  RH  027%=      5-min Rain = 0
KES1 182324Z 26012KT 20/01 A2956 RMK A01 T02010005  RH  027%=      5-min Rain = 0
KES1 182325Z 26013KT 20/01 A2956 RMK A01 T02000005  RH  027%=      5-min Rain = 0
KES1 182326Z 26014KT 20/01 A2956 RMK A01 T02000005  RH  027%=      5-min Rain = 0
KES1 182327Z 26015KT 20/01 A2956 RMK A01 T02000005  RH  027%=      5-min Rain = 0
KES1 182328Z 26014KT 20/00 A2956 RMK A01 T01990004  RH  027%=      5-min Rain = 0
KES1 182329Z 26013KT 20/01 A2956 RMK A01 T02000005  RH  027%=      5-min Rain = 0
KES1 182330Z 26014KT 20/01 A2956 RMK A01 T01990005  RH  027%=      5-min Rain = 0
KES1 182331Z 26014KT 20/01 A2956 RMK A01 T01990005  RH  027%=      5-min Rain = 0
KES1 182332Z 26013KT 20/01 A2956 RMK A01 T01990005  RH  027%=      5-min Rain = 0
KES1 182333Z 26011G17KT 20/01 A2956 RMK A01 T01990005  RH  027%=      5-min Rain = 0
KES1 182334Z 26011KT 20/01 A2956 RMK A01 T01990006  RH  027%=      5-min Rain = 0
KES1 182335Z 26010KT 20/01 A2956 RMK A01 T01980006  RH  028%=      5-min Rain = 0
KES1 182336Z 26013G18KT 20/01 A2956 RMK A01 T01970006  RH  028%=      5-min Rain = 0
KES1 182337Z 26011KT 20/01 A2956 RMK A01 T01970006  RH  028%=      5-min Rain = 0
KES1 182338Z 26010KT 20/01 A2956 RMK A01 T01970006  RH  028%=      5-min Rain = 0
KES1 182339Z 26011KT 20/01 A2956 RMK A01 T01960006  RH  028%=      5-min Rain = 0
KES1 182340Z 26009KT 20/01 A2956 RMK A01 T01960006  RH  028%=      5-min Rain = 0
KES1 182341Z 26011KT 20/01 A2956 RMK A01 T01950006  RH  028%=      5-min Rain = 0
KES1 182342Z 26012KT 20/01 A2956 RMK A01 T01950006  RH  028%=      5-min Rain = 0
KES1 182343Z 26011KT 20/01 A2956 RMK A01 T01950007  RH  028%=      5-min Rain = 0
KES1 182344Z 26009KT 20/01 A2956 RMK A01 T01950006  RH  028%=      5-min Rain = 0
KES1 182345Z 25011G16KT 19/01 A2956 RMK A01 T01940007  RH  029%=      5-min Rain = 0
KES1 182346Z 26011KT 19/01 A2956 RMK A01 T01940007  RH  029%=      5-min Rain = 0
KES1 182347Z 26012KT 19/01 A2956 RMK A01 T01940007  RH  029%=      5-min Rain = 0
KES1 182348Z 26011KT 19/01 A2956 RMK A01 T01940007  RH  029%=      5-min Rain = 0
KES1 182349Z 26010KT 19/01 A2956 RMK A01 T01940008  RH  029%=      5-min Rain = 0
KES1 182350Z 26010KT 19/01 A2956 RMK A01 T01930007  RH  029%=      5-min Rain = 0
KES1 182351Z 26010KT 19/01 A2957 RMK A01 T01930008  RH  029%=      5-min Rain = 0
KES1 182352Z 27010KT 19/01 A2957 RMK A01 T01920008  RH  029%=      5-min Rain = 0
KES1 182353Z 27011KT 19/01 A2957 RMK A01 T01920008  RH  029%=      5-min Rain = 0
KES1 182354Z 30015G24KT 19/01 A2959 RMK A01 T01910009  RH  029%=      5-min Rain = 0
KES1 182355Z 33029G35KT 19/01 A2961 RMK A01 T01890010  RH  030%=      5-min Rain = 0
KES1 182356Z 34026KT 17/01 A2962 RMK A01 T01720010  RH  034%=      5-min Rain = 0
KES1 182357Z 34026G32KT 15/01 A2962 RMK A01 T01530010  RH  038%=      5-min Rain = 0
KES1 182358Z 34024G29KT 14/01 A2962 RMK A01 T01440013  RH  041%=      5-min Rain = 0
KES1 182359Z 34022G28KT 14/01 A2962 RMK A01 T01390014  RH  043%=      5-min Rain = 0
KES1 190000Z 34019KT 14/02 A2962 RMK A01 T01370015  RH  044%=      5-min Rain = 0
KES1 190001Z 34021KT 14/02 A2962 RMK A01 T01350016  RH  044%=      5-min Rain = 0
KES1 190002Z 34020G25KT 13/02 A2962 RMK A01 T01330016  RH  045%=      5-min Rain = 0
KES1 190003Z 34025G30KT 13/02 A2963 RMK A01 T01310016  RH  046%=      5-min Rain = 0
KES1 190004Z 34026KT 13/02 A2963 RMK A01 T01290017  RH  046%=      5-min Rain = 0
KES1 190005Z 35023G30KT 13/02 A2963 RMK A01 T01270017  RH  047%=      5-min Rain = 0
KES1 190006Z 34024G30KT 13/02 A2963 RMK A01 T01250017  RH  047%=      5-min Rain = 0
KES1 190007Z 34021G26KT 12/02 A2963 RMK A01 T01240016  RH  048%=      5-min Rain = 0
KES1 190008Z 35025KT 12/02 A2963 RMK A01 T01230016  RH  048%=      5-min Rain = 0
KES1 190009Z 35025G30KT 12/02 A2963 RMK A01 T01220017  RH  049%=      5-min Rain = 0
KES1 190010Z 35022G28KT 12/02 A2964 RMK A01 T01210016  RH  049%=      5-min Rain = 0
KES1 190011Z 35023G29KT 12/02 A2964 RMK A01 T01200016  RH  049%=      5-min Rain = 0
KES1 190012Z 35022KT 12/02 A2964 RMK A01 T01190016  RH  049%=      5-min Rain = 0
KES1 190013Z 35025KT 12/02 A2964 RMK A01 T01180016  RH  050%=      5-min Rain = 0
KES1 190014Z 35020KT 12/02 A2964 RMK A01 T01160015  RH  050%=      5-min Rain = 0
KES1 190015Z 35020KT 12/02 A2965 RMK A01 T01150015  RH  050%=      5-min Rain = 0
KES1 190016Z 35017KT 12/02 A2965 RMK A01 T01150015  RH  050%=      5-min Rain = 0
KES1 190017Z 34023G28KT 11/02 A2965 RMK A01 T01140015  RH  051%=      5-min Rain = 0
KES1 190018Z 34024G29KT 11/01 A2965 RMK A01 T01130014  RH  051%=      5-min Rain = 0
KES1 190019Z 34023KT 11/01 A2966 RMK A01 T01120014  RH  051%=      5-min Rain = 0
KES1 190020Z 35024KT 11/01 A2966 RMK A01 T01110014  RH  051%=      5-min Rain = 0
KES1 190021Z 36019KT 11/01 A2966 RMK A01 T01100014  RH  052%=      5-min Rain = 0
KES1 190022Z 35021KT 11/01 A2966 RMK A01 T01090014  RH  052%=      5-min Rain = 0
KES1 190023Z 36022KT 11/01 A2966 RMK A01 T01070013  RH  052%=      5-min Rain = 0
KES1 190024Z 35019G24KT 11/01 A2966 RMK A01 T01060013  RH  052%=      5-min Rain = 0
KES1 190025Z 35019G26KT 11/01 A2966 RMK A01 T01050013  RH  053%=      5-min Rain = 0
KES1 190026Z 35020G29KT 10/01 A2966 RMK A01 T01040012  RH  053%=      5-min Rain = 0
KES1 190027Z 35023G29KT 10/01 A2966 RMK A01 T01020011  RH  053%=      5-min Rain = 0
KES1 190028Z 35022KT 10/01 A2966 RMK A01 T01000011  RH  054%=      5-min Rain = 0
KES1 190029Z 35022KT 10/01 A2966 RMK A01 T00990011  RH  054%=      5-min Rain = 0
KES1 190030Z 35021G29KT 10/01 A2967 RMK A01 T00970010  RH  055%=      5-min Rain = 0
KES1 190031Z 36023G28KT 10/01 A2967 RMK A01 T00960010  RH  055%=      5-min Rain = 0
KES1 190032Z 35024KT 10/01 A2967 RMK A01 T00950010  RH  055%=      5-min Rain = 0
KES1 190033Z 35022G27KT 09/01 A2967 RMK A01 T00940010  RH  056%=      5-min Rain = 0
KES1 190034Z 36023G28KT 09/01 A2967 RMK A01 T00930009  RH  056%=      5-min Rain = 0
KES1 190035Z 35024G29KT 09/01 A2967 RMK A01 T00920009  RH  056%=      5-min Rain = 0
KES1 190036Z 36021G26KT 09/01 A2967 RMK A01 T00910009  RH  056%=      5-min Rain = 0
KES1 190037Z 35020KT 09/01 A2967 RMK A01 T00900009  RH  057%=      5-min Rain = 0
KES1 190038Z 35017G22KT 09/01 A2967 RMK A01 T00890009  RH  057%=      5-min Rain = 0
KES1 190039Z 35019G24KT 09/01 A2967 RMK A01 T00880009  RH  057%=      5-min Rain = 0
KES1 190040Z 35015KT 09/01 A2967 RMK A01 T00880008  RH  058%=      5-min Rain = 0
KES1 190041Z 36015KT 09/01 A2967 RMK A01 T00870009  RH  058%=      5-min Rain = 0
KES1 190042Z 00020G27KT 09/01 A2967 RMK A01 T00860008  RH  058%=      5-min Rain = 0
KES1 190043Z 36022KT 09/01 A2967 RMK A01 T00850008  RH  058%=      5-min Rain = 0
KES1 190044Z 36020KT 08/01 A2967 RMK A01 T00840008  RH  059%=      5-min Rain = 0
KES1 190045Z 00019G25KT 08/01 A2967 RMK A01 T00820008  RH  059%=      5-min Rain = 0
KES1 190046Z 36021G26KT 08/01 A2968 RMK A01 T00820008  RH  060%=      5-min Rain = 0
KES1 190047Z 36019G24KT 08/01 A2968 RMK A01 T00810007  RH  060%=      5-min Rain = 0
KES1 190048Z 36016G21KT 08/01 A2968 RMK A01 T00800007  RH  060%=      5-min Rain = 0
KES1 190049Z 36022G27KT 08/01 A2968 RMK A01 T00800007  RH  060%=      5-min Rain = 0
KES1 190050Z 35023KT 08/01 A2969 RMK A01 T00780007  RH  061%=      5-min Rain = 0
KES1 190051Z 00023KT 08/01 A2969 RMK A01 T00770007  RH  061%=      5-min Rain = 0
KES1 190052Z 35021G26KT 08/01 A2969 RMK A01 T00760007  RH  061%=      5-min Rain = 0
KES1 190053Z 35020KT 08/01 A2969 RMK A01 T00750006  RH  062%=      5-min Rain = 0
KES1 190054Z 35022KT 07/01 A2969 RMK A01 T00740006  RH  062%=      5-min Rain = 0
KES1 190055Z 36017KT 07/01 A2969 RMK A01 T00740006  RH  062%=      5-min Rain = 0
KES1 190056Z 35023G29KT 07/01 A2969 RMK A01 T00730007  RH  063%=      5-min Rain = 0
KES1 190057Z 35020G25KT 07/01 A297 RMK A01 T00720007  RH  063%=      5-min Rain = 0
KES1 190058Z 35020G27KT 07/01 A297 RMK A01 T00710007  RH  063%=      5-min Rain = 0
KES1 190059Z 35024G30KT 07/01 A297 RMK A01 T00710007  RH  064%=      5-min Rain = 0
KES1 190100Z 34026KT 07/01 A297 RMK A01 T00700007  RH  064%=      5-min Rain = 0
KES1 190101Z 34022KT 07/01 A2971 RMK A01 T00690007  RH  064%=      5-min Rain = 0
KES1 190102Z 34018G24KT 07/01 A2971 RMK A01 T00690007  RH  065%=      5-min Rain = 0
KES1 190103Z 33018KT 07/01 A2971 RMK A01 T00690007  RH  065%=      5-min Rain = 0
KES1 190104Z 34020G25KT 07/01 A2972 RMK A01 T00690008  RH  065%=      5-min Rain = 0
KES1 190105Z 33018KT 07/01 A2972 RMK A01 T00680008  RH  065%=      5-min Rain = 0
KES1 190106Z 34017KT 07/01 A2972 RMK A01 T00680008  RH  065%=      5-min Rain = 0
KES1 190107Z 33017KT 07/01 A2973 RMK A01 T00680008  RH  066%=      5-min Rain = 0
KES1 190108Z 34016KT 07/01 A2972 RMK A01 T00680008  RH  066%=      5-min Rain = 0
KES1 190109Z 33015G20KT 07/01 A2973 RMK A01 T00670008  RH  066%=      5-min Rain = 0
KES1 190110Z 33017KT 07/01 A2973 RMK A01 T00670008  RH  066%=      5-min Rain = 0
KES1 190111Z 32020G26KT 07/01 A2973 RMK A01 T00670008  RH  066%=      5-min Rain = 0
KES1 190112Z 32024KT 07/01 A2974 RMK A01 T00670009  RH  066%=      5-min Rain = 0
KES1 190113Z 32020KT 07/01 A2974 RMK A01 T00670009  RH  067%=      5-min Rain = 0
KES1 190114Z 32019KT 07/01 A2975 RMK A01 T00670009  RH  067%=      5-min Rain = 0
KES1 190115Z 33024G31KT 07/01 A2975 RMK A01 T00670010  RH  067%=      5-min Rain = 0
KES1 190116Z 33029KT 07/01 A2975 RMK A01 T00660011  RH  068%=      5-min Rain = 0
KES1 190117Z 33024G30KT 07/01 A2975 RMK A01 T00660011  RH  068%=      5-min Rain = 0
KES1 190118Z 32028G35KT 07/01 A2975 RMK A01 T00660011  RH  068%=      5-min Rain = 0
KES1 190119Z 33025G30KT 07/01 A2975 RMK A01 T00660011  RH  068%=      5-min Rain = 0
KES1 190120Z 32024KT 07/01 A2975 RMK A01 T00650012  RH  068%=      5-min Rain = 0
KES1 190121Z 33025G30KT 07/01 A2975 RMK A01 T00650012  RH  069%=      5-min Rain = 0
KES1 190122Z 32022G29KT 07/01 A2975 RMK A01 T00650012  RH  069%=      5-min Rain = 0
KES1 190123Z 32022G30KT 07/01 A2976 RMK A01 T00650012  RH  069%=      5-min Rain = 0
KES1 190124Z 32026KT 07/01 A2976 RMK A01 T00650012  RH  069%=      5-min Rain = 0
KES1 190125Z 32025KT 07/01 A2976 RMK A01 T00650012  RH  069%=      5-min Rain = 0
KES1 190126Z 33027KT 06/01 A2976 RMK A01 T00640012  RH  069%=      5-min Rain = 0
KES1 190127Z 32023G28KT 06/01 A2976 RMK A01 T00640012  RH  069%=      5-min Rain = 0
KES1 190128Z 32024KT 06/01 A2976 RMK A01 T00640012  RH  069%=      5-min Rain = 0
KES1 190129Z 32025G32KT 06/01 A2976 RMK A01 T00640012  RH  069%=      5-min Rain = 0
KES1 190130Z 32027G32KT 07/01 A2976 RMK A01 T00650013  RH  069%=      5-min Rain = 0
KES1 190131Z 33022KT 07/01 A2977 RMK A01 T00650013  RH  069%=      5-min Rain = 0
KES1 190132Z 32020G25KT 07/01 A2977 RMK A01 T00650013  RH  069%=      5-min Rain = 0
KES1 190133Z 33025G30KT 07/01 A2977 RMK A01 T00660013  RH  069%=      5-min Rain = 0
KES1 190134Z 33023G28KT 07/01 A2977 RMK A01 T00650013  RH  069%=      5-min Rain = 0
KES1 190135Z 33020KT 07/01 A2977 RMK A01 T00650013  RH  069%=      5-min Rain = 0
KES1 190136Z 33019G25KT 07/01 A2977 RMK A01 T00650013  RH  069%=      5-min Rain = 0
KES1 190137Z 33021KT 07/01 A2977 RMK A01 T00650013  RH  069%=      5-min Rain = 0
KES1 190138Z 34019G24KT 07/01 A2977 RMK A01 T00650013  RH  069%=      5-min Rain = 0
KES1 190139Z 34022G29KT 07/01 A2977 RMK A01 T00650014  RH  070%=      5-min Rain = 0
KES1 190140Z 34025KT 07/01 A2977 RMK A01 T00650014  RH  070%=      5-min Rain = 0
KES1 190141Z 34020G25KT 07/01 A2977 RMK A01 T00650014  RH  070%=      5-min Rain = 0
KES1 190142Z 34017G23KT 07/01 A2977 RMK A01 T00650014  RH  070%=      5-min Rain = 0
KES1 190143Z 33024KT 07/01 A2977 RMK A01 T00650014  RH  070%=      5-min Rain = 0
KES1 190144Z 34022KT 07/01 A2977 RMK A01 T00650014  RH  070%=      5-min Rain = 0
KES1 190145Z 33017KT 07/01 A2978 RMK A01 T00650014  RH  070%=      5-min Rain = 0
KES1 190146Z 33021G26KT 07/01 A2978 RMK A01 T00650014  RH  070%=      5-min Rain = 0
KES1 190147Z 33022G28KT 07/01 A2978 RMK A01 T00650014  RH  070%=      5-min Rain = 0
KES1 190148Z 32022G27KT 07/01 A2978 RMK A01 T00650014  RH  070%=      5-min Rain = 0
KES1 190149Z 33023KT 06/01 A2978 RMK A01 T00640014  RH  070%=      5-min Rain = 0
KES1 190150Z 32023KT 06/01 A2978 RMK A01 T00640014  RH  070%=      5-min Rain = 0
KES1 190151Z 33021KT 06/01 A2979 RMK A01 T00640014  RH  070%=      5-min Rain = 0
KES1 190152Z 33021G28KT 06/01 A2979 RMK A01 T00640014  RH  071%=      5-min Rain = 0
KES1 190153Z 34016G21KT 06/02 A2979 RMK A01 T00640015  RH  071%=      5-min Rain = 0
KES1 190154Z 34018G23KT 06/02 A2978 RMK A01 T00640015  RH  071%=      5-min Rain = 0
KES1 190155Z 34017KT 06/02 A2978 RMK A01 T00640015  RH  071%=      5-min Rain = 0
KES1 190156Z 33020G25KT 06/02 A2978 RMK A01 T00640015  RH  071%=      5-min Rain = 0
KES1 190157Z 33024G31KT 06/02 A2979 RMK A01 T00640015  RH  071%=      5-min Rain = 0
KES1 190158Z 33029KT 06/02 A2979 RMK A01 T00640015  RH  071%=      5-min Rain = 0
KES1 190159Z 33022G27KT 06/02 A2979 RMK A01 T00630015  RH  071%=      5-min Rain = 0
KES1 190200Z 33019G24KT 06/02 A2979 RMK A01 T00630015  RH  071%=      5-min Rain = 0
KES1 190201Z 33021G26KT 06/02 A2979 RMK A01 T00630015  RH  071%=      5-min Rain = 0
KES1 190202Z 33019G26KT 06/02 A2979 RMK A01 T00630015  RH  071%=      5-min Rain = 0
KES1 190203Z 33025G30KT 06/02 A2979 RMK A01 T00630015  RH  071%=      5-min Rain = 0
KES1 190204Z 33022KT 06/02 A2979 RMK A01 T00630015  RH  071%=      5-min Rain = 0
KES1 190205Z 34021G27KT 06/02 A2979 RMK A01 T00630015  RH  072%=      5-min Rain = 0
KES1 190206Z 33019G24KT 06/02 A298 RMK A01 T00630015  RH  072%=      5-min Rain = 0
KES1 190207Z 33023G29KT 06/02 A298 RMK A01 T00620015  RH  072%=      5-min Rain = 0
KES1 190208Z 34023KT 06/02 A298 RMK A01 T00630015  RH  072%=      5-min Rain = 0
KES1 190209Z 34022KT 06/02 A298 RMK A01 T00630015  RH  072%=      5-min Rain = 0
KES1 190210Z 34020G25KT 06/02 A298 RMK A01 T00630015  RH  072%=      5-min Rain = 0
KES1 190211Z 34024KT 06/02 A298 RMK A01 T00620015  RH  072%=      5-min Rain = 0
KES1 190212Z 33021KT 06/02 A298 RMK A01 T00620015  RH  072%=      5-min Rain = 0
KES1 190213Z 34019KT 06/02 A2981 RMK A01 T00620015  RH  072%=      5-min Rain = 0
KES1 190214Z 35020G25KT 06/02 A2981 RMK A01 T00620015  RH  072%=      5-min Rain = 0
KES1 190215Z 34017KT 06/02 A298 RMK A01 T00620015  RH  072%=      5-min Rain = 0
KES1 190216Z 33019KT 06/02 A2981 RMK A01 T00620015  RH  072%=      5-min Rain = 0
KES1 190217Z 32024KT 06/02 A298 RMK A01 T00620015  RH  072%=      5-min Rain = 0
KES1 190218Z 33025KT 06/01 A2981 RMK A01 T00610014  RH  072%=      5-min Rain = 0
KES1 190219Z 33027KT 06/01 A2981 RMK A01 T00610014  RH  072%=      5-min Rain = 0
KES1 190220Z 33027G32KT 06/01 A2981 RMK A01 T00600013  RH  072%=      5-min Rain = 0
KES1 190221Z 34024G29KT 06/01 A2981 RMK A01 T00600014  RH  072%=      5-min Rain = 0
KES1 190222Z 33020G25KT 06/01 A2981 RMK A01 T00600013  RH  072%=      5-min Rain = 0
KES1 190223Z 33021G29KT 06/01 A2981 RMK A01 T00600014  RH  072%=      5-min Rain = 0
KES1 190224Z 33024KT 06/01 A2981 RMK A01 T00600013  RH  072%=      5-min Rain = 0
KES1 190225Z 33021KT 06/01 A2981 RMK A01 T00590013  RH  072%=      5-min Rain = 0
KES1 190226Z 33022G29KT 06/01 A2981 RMK A01 T00590013  RH  072%=      5-min Rain = 0
KES1 190227Z 34021KT 06/01 A2981 RMK A01 T00600013  RH  072%=      5-min Rain = 0
KES1 190228Z 34020KT 06/01 A2981 RMK A01 T00590013  RH  072%=      5-min Rain = 0
KES1 190229Z 33019KT 06/01 A2981 RMK A01 T00590013  RH  072%=      5-min Rain = 0
KES1 190230Z 33022G28KT 06/01 A2982 RMK A01 T00590013  RH  072%=      5-min Rain = 0
KES1 190231Z 33023G28KT 06/01 A2982 RMK A01 T00590012  RH  072%=      5-min Rain = 0
KES1 190232Z 33021G27KT 06/01 A2982 RMK A01 T00590012  RH  072%=      5-min Rain = 0
KES1 190233Z 33022KT 06/01 A2982 RMK A01 T00590011  RH  072%=      5-min Rain = 0
KES1 190234Z 33020KT 06/01 A2982 RMK A01 T00580011  RH  072%=      5-min Rain = 0
KES1 190235Z 33025KT 06/01 A2982 RMK A01 T00580011  RH  072%=      5-min Rain = 0
KES1 190236Z 33025KT 06/01 A2982 RMK A01 T00580011  RH  072%=      5-min Rain = 0
KES1 190237Z 33022KT 06/01 A2982 RMK A01 T00570010  RH  072%=      5-min Rain = 0
KES1 190238Z 34024G29KT 06/01 A2982 RMK A01 T00570010  RH  072%=      5-min Rain = 0
KES1 190239Z 33023G28KT 06/01 A2983 RMK A01 T00570010  RH  072%=      5-min Rain = 0
KES1 190240Z 33021G28KT 06/01 A2983 RMK A01 T00570009  RH  072%=      5-min Rain = 0
KES1 190241Z 34022G29KT 06/01 A2983 RMK A01 T00570009  RH  071%=      5-min Rain = 0
KES1 190242Z 34030G35KT 06/01 A2983 RMK A01 T00570008  RH  071%=      5-min Rain = 0
KES1 190243Z 34025KT 06/01 A2983 RMK A01 T00570007  RH  071%=      5-min Rain = 0
KES1 190244Z 34023G28KT 06/01 A2983 RMK A01 T00570007  RH  070%=      5-min Rain = 0
KES1 190245Z 34022G30KT 06/01 A2983 RMK A01 T00570007  RH  070%=      5-min Rain = 0
KES1 190246Z 34023G31KT 06/01 A2983 RMK A01 T00570007  RH  070%=      5-min Rain = 0
KES1 190247Z 34020KT 06/01 A2983 RMK A01 T00560006  RH  070%=      5-min Rain = 0
KES1 190248Z 35021G29KT 06/01 A2984 RMK A01 T00560006  RH  070%=      5-min Rain = 0
KES1 190249Z 35025G30KT 06/01 A2983 RMK A01 T00560006  RH  070%=      5-min Rain = 0
KES1 190250Z 35021G26KT 06/01 A2983 RMK A01 T00560005  RH  070%=      5-min Rain = 0
KES1 190251Z 34020KT 06/01 A2984 RMK A01 T00560006  RH  070%=      5-min Rain = 0
KES1 190252Z 34020G25KT 06/01 A2984 RMK A01 T00560006  RH  070%=      5-min Rain = 0
KES1 190253Z 34021KT 06/01 A2984 RMK A01 T00560006  RH  070%=      5-min Rain = 0
KES1 190254Z 34022KT 06/01 A2984 RMK A01 T00560006  RH  070%=      5-min Rain = 0
KES1 190255Z 34017KT 06/01 A2984 RMK A01 T00560006  RH  070%=      5-min Rain = 0
KES1 190256Z 34018KT 06/01 A2984 RMK A01 T00560006  RH  071%=      5-min Rain = 0
KES1 190257Z 34015KT 06/01 A2984 RMK A01 T00560006  RH  070%=      5-min Rain = 0
KES1 190258Z 35020KT 06/01 A2984 RMK A01 T00560006  RH  070%=      5-min Rain = 0
KES1 190259Z 34020KT 06/01 A2984 RMK A01 T00560005  RH  070%=      5-min Rain = 0
KES1 190300Z 34021KT 06/01 A2984 RMK A01 T00560005  RH  070%=      5-min Rain = 0
KES1 190301Z 34021KT 06/01 A2984 RMK A01 T00560005  RH  070%=      5-min Rain = 0
KES1 190302Z 34020KT 06/01 A2984 RMK A01 T00560005  RH  070%=      5-min Rain = 0
KES1 190303Z 34020KT 06/01 A2984 RMK A01 T00560005  RH  070%=      5-min Rain = 0
KES1 190304Z 35020KT 06/00 A2984 RMK A01 T00560004  RH  070%=      5-min Rain = 0
KES1 190305Z 35022G28KT 06/00 A2984 RMK A01 T00550004  RH  069%=      5-min Rain = 0
KES1 190306Z 34022KT 06/00 A2984 RMK A01 T00550003  RH  069%=      5-min Rain = 0
KES1 190307Z 34019G24KT 06/00 A2984 RMK A01 T00550003  RH  069%=      5-min Rain = 0
KES1 190308Z 33018KT 06/00 A2985 RMK A01 T00550003  RH  069%=      5-min Rain = 0
KES1 190309Z 33019G24KT 06/00 A2985 RMK A01 T00550003  RH  069%=      5-min Rain = 0
KES1 190310Z 33024G29KT 06/00 A2985 RMK A01 T00550004  RH  069%=      5-min Rain = 0
KES1 190311Z 33023G30KT 06/00 A2985 RMK A01 T00550003  RH  069%=      5-min Rain = 0
KES1 190312Z 33021G26KT 05/00 A2985 RMK A01 T00540002  RH  069%=      5-min Rain = 0
KES1 190313Z 33023G28KT 05/00 A2985 RMK A01 T00540002  RH  069%=      5-min Rain = 0
KES1 190314Z 34020G25KT 05/00 A2985 RMK A01 T00540002  RH  069%=      5-min Rain = 0
KES1 190315Z 34020KT 05/00 A2985 RMK A01 T00540002  RH  069%=      5-min Rain = 0
KES1 190316Z 33022G30KT 05/00 A2985 RMK A01 T00540001  RH  069%=      5-min Rain = 0
KES1 190317Z 33025G31KT 05/00 A2986 RMK A01 T00530000  RH  069%=      5-min Rain = 0
KES1 190318Z 34028G33KT 05/M00 A2986 RMK A01 T00521001  RH  069%=      5-min Rain = 0
KES1 190319Z 35027G32KT 05/M00 A2986 RMK A01 T00511002  RH  069%=      5-min Rain = 0
KES1 190320Z 34026G31KT 05/M00 A2986 RMK A01 T00511002  RH  069%=      5-min Rain = 0
KES1 190321Z 34029KT 05/M00 A2986 RMK A01 T00511002  RH  069%=      5-min Rain = 0
KES1 190322Z 35027G34KT 05/M00 A2986 RMK A01 T00501002  RH  069%=      5-min Rain = 0
KES1 190323Z 34026KT 05/M00 A2986 RMK A01 T00501003  RH  069%=      5-min Rain = 0
KES1 190324Z 34028G34KT 05/M00 A2986 RMK A01 T00501003  RH  069%=      5-min Rain = 0
KES1 190325Z 34020G25KT 05/M00 A2986 RMK A01 T00501003  RH  069%=      5-min Rain = 0
KES1 190326Z 34022G30KT 05/M00 A2986 RMK A01 T00501003  RH  069%=      5-min Rain = 0
KES1 190327Z 35027G32KT 05/M00 A2986 RMK A01 T00501003  RH  069%=      5-min Rain = 0
KES1 190328Z 34020G26KT 05/M00 A2986 RMK A01 T00501003  RH  068%=      5-min Rain = 0
KES1 190329Z 34023G28KT 05/M00 A2986 RMK A01 T00501003  RH  069%=      5-min Rain = 0
KES1 190330Z 34022G27KT 05/M00 A2986 RMK A01 T00501003  RH  068%=      5-min Rain = 0
KES1 190331Z 34023KT 05/M00 A2987 RMK A01 T00501003  RH  068%=      5-min Rain = 0
KES1 190332Z 34027KT 05/M00 A2987 RMK A01 T00501004  RH  068%=      5-min Rain = 0
KES1 190333Z 34025KT 05/M00 A2987 RMK A01 T00501004  RH  068%=      5-min Rain = 0
KES1 190334Z 34029KT 05/M01 A2987 RMK A01 T00491005  RH  068%=      5-min Rain = 0
KES1 190335Z 34030G37KT 05/M01 A2987 RMK A01 T00491005  RH  068%=      5-min Rain = 0
KES1 190336Z 34030G35KT 05/M01 A2988 RMK A01 T00491006  RH  068%=      5-min Rain = 0
KES1 190337Z 34026KT 05/M01 A2988 RMK A01 T00491005  RH  068%=      5-min Rain = 0
KES1 190338Z 35021KT 05/M01 A2988 RMK A01 T00491005  RH  068%=      5-min Rain = 0
KES1 190339Z 34023G28KT 05/M01 A2988 RMK A01 T00491005  RH  068%=      5-min Rain = 0
KES1 190340Z 35025KT 05/M01 A2988 RMK A01 T00491005  RH  068%=      5-min Rain = 0
KES1 190341Z 36027G32KT 05/M01 A2988 RMK A01 T00481006  RH  068%=      5-min Rain = 0
KES1 190342Z 34026G31KT 05/M01 A2988 RMK A01 T00481006  RH  068%=      5-min Rain = 0
KES1 190343Z 34027KT 05/M01 A2988 RMK A01 T00481007  RH  067%=      5-min Rain = 0
KES1 190344Z 35024KT 05/M01 A2988 RMK A01 T00481007  RH  067%=      5-min Rain = 0
KES1 190345Z 34023G30KT 05/M01 A2988 RMK A01 T00481007  RH  067%=      5-min Rain = 0
KES1 190346Z 34026KT 05/M01 A2988 RMK A01 T00481008  RH  067%=      5-min Rain = 0
KES1 190347Z 34021G28KT 05/M01 A2988 RMK A01 T00471008  RH  067%=      5-min Rain = 0
KES1 190348Z 34027KT 05/M01 A2989 RMK A01 T00471009  RH  067%=      5-min Rain = 0
KES1 190349Z 34029G34KT 05/M01 A2989 RMK A01 T00471009  RH  067%=      5-min Rain = 0
KES1 190350Z 34030G35KT 05/M01 A2989 RMK A01 T00471009  RH  067%=      5-min Rain = 0
KES1 190351Z 34024G29KT 05/M01 A2989 RMK A01 T00471010  RH  067%=      5-min Rain = 0
KES1 190352Z 34024G30KT 05/M01 A2989 RMK A01 T00471010  RH  067%=      5-min Rain = 0
KES1 190353Z 34026G34KT 05/M01 A2989 RMK A01 T00471010  RH  067%=      5-min Rain = 0
KES1 190354Z 34025G33KT 05/M01 A2989 RMK A01 T00461011  RH  067%=      5-min Rain = 0
KES1 190355Z 34025KT 05/M01 A2989 RMK A01 T00471011  RH  066%=      5-min Rain = 0
KES1 190356Z 34025KT 05/M01 A2989 RMK A01 T00471011  RH  066%=      5-min Rain = 0
KES1 190357Z 35025G31KT 05/M01 A2989 RMK A01 T00471011  RH  066%=      5-min Rain = 0
KES1 190358Z 35023G30KT 05/M01 A2989 RMK A01 T00461012  RH  066%=      5-min Rain = 0
KES1 190359Z 34019G28KT 05/M01 A2989 RMK A01 T00471011  RH  066%=      5-min Rain = 0
KES1 190400Z 34021G28KT 05/M01 A2989 RMK A01 T00471011  RH  066%=      5-min Rain = 0
KES1 190401Z 35027G34KT 05/M01 A299 RMK A01 T00471012  RH  066%=      5-min Rain = 0
KES1 190402Z 35026G32KT 05/M01 A299 RMK A01 T00461013  RH  065%=      5-min Rain = 0
KES1 190403Z 35024KT 05/M01 A299 RMK A01 T00461014  RH  065%=      5-min Rain = 0
KES1 190404Z 34024G30KT 05/M01 A299 RMK A01 T00451014  RH  065%=      5-min Rain = 0
KES1 190405Z 34029KT 05/M02 A299 RMK A01 T00451015  RH  065%=      5-min Rain = 0
KES1 190406Z 34025G30KT 05/M02 A299 RMK A01 T00451015  RH  065%=      5-min Rain = 0
KES1 190407Z 34022G29KT 05/M02 A299 RMK A01 T00451015  RH  065%=      5-min Rain = 0
KES1 190408Z 34026KT 05/M02 A299 RMK A01 T00451015  RH  065%=      5-min Rain = 0
KES1 190409Z 35024KT 05/M02 A299 RMK A01 T00451015  RH  065%=      5-min Rain = 0
KES1 190410Z 34021G28KT 05/M02 A299 RMK A01 T00451015  RH  065%=      5-min Rain = 0
KES1 190411Z 34022G28KT 05/M01 A2991 RMK A01 T00451014  RH  065%=      5-min Rain = 0
KES1 190412Z 34030KT 05/M02 A2991 RMK A01 T00451015  RH  065%=      5-min Rain = 0
KES1 190413Z 35025KT 05/M02 A2991 RMK A01 T00451016  RH  065%=      5-min Rain = 0
KES1 190414Z 35023KT 04/M02 A2991 RMK A01 T00441016  RH  065%=      5-min Rain = 0
KES1 190415Z 34025G30KT 04/M02 A2991 RMK A01 T00431017  RH  065%=      5-min Rain = 0
KES1 190416Z 34021KT 04/M02 A2991 RMK A01 T00431016  RH  065%=      5-min Rain = 0
KES1 190417Z 34022G28KT 04/M02 A2991 RMK A01 T00431016  RH  065%=      5-min Rain = 0
KES1 190418Z 34023G29KT 04/M02 A2992 RMK A01 T00431016  RH  066%=      5-min Rain = 0
KES1 190419Z 34027G34KT 04/M02 A2992 RMK A01 T00431016  RH  066%=      5-min Rain = 0
KES1 190420Z 34025G30KT 04/M02 A2992 RMK A01 T00421017  RH  065%=      5-min Rain = 0
KES1 190421Z 34023G29KT 04/M02 A2992 RMK A01 T00421017  RH  066%=      5-min Rain = 0
KES1 190422Z 34025G31KT 04/M02 A2992 RMK A01 T00421017  RH  066%=      5-min Rain = 0
KES1 190423Z 34026G32KT 04/M02 A2993 RMK A01 T00411018  RH  066%=      5-min Rain = 0
KES1 190424Z 33026G32KT 04/M02 A2993 RMK A01 T00411018  RH  065%=      5-min Rain = 0
KES1 190425Z 35022G28KT 04/M02 A2993 RMK A01 T00411018  RH  065%=      5-min Rain = 0
KES1 190426Z 35025G30KT 04/M02 A2993 RMK A01 T00411018  RH  066%=      5-min Rain = 0
KES1 190427Z 35022G27KT 04/M02 A2993 RMK A01 T00401019  RH  065%=      5-min Rain = 0
KES1 190428Z 35020G27KT 04/M02 A2993 RMK A01 T00401018  RH  066%=      5-min Rain = 0
KES1 190429Z 34022G29KT 04/M02 A2993 RMK A01 T00401018  RH  066%=      5-min Rain = 0
KES1 190430Z 35022KT 04/M02 A2993 RMK A01 T00401018  RH  066%=      5-min Rain = 0
KES1 190431Z 35021KT 04/M02 A2993 RMK A01 T00391018  RH  066%=      5-min Rain = 0
KES1 190432Z 35020G25KT 04/M02 A2994 RMK A01 T00391017  RH  067%=      5-min Rain = 0
KES1 190433Z 34018G23KT 04/M02 A2994 RMK A01 T00391017  RH  067%=      5-min Rain = 0
KES1 190434Z 32024G29KT 04/M02 A2994 RMK A01 T00391016  RH  067%=      5-min Rain = 0
KES1 190435Z 33022KT 04/M02 A2994 RMK A01 T00391015  RH  068%=      5-min Rain = 0
KES1 190436Z 33023KT 04/M02 A2994 RMK A01 T00391015  RH  068%=      5-min Rain = 0
KES1 190437Z 34027KT 04/M02 A2994 RMK A01 T00381015  RH  068%=      5-min Rain = 0
KES1 190438Z 33025KT 04/M02 A2994 RMK A01 T00371015  RH  069%=      5-min Rain = 0
KES1 190439Z 33023KT 04/M02 A2995 RMK A01 T00371015  RH  069%=      5-min Rain = 0
KES1 190440Z 33023KT 04/M02 A2995 RMK A01 T00361015  RH  069%=      5-min Rain = 0
KES1 190441Z 34021KT 04/M01 A2995 RMK A01 T00361014  RH  070%=      5-min Rain = 0
KES1 190442Z 33018G23KT 04/M01 A2995 RMK A01 T00361014  RH  070%=      5-min Rain = 0
KES1 190443Z 33020KT 04/M01 A2995 RMK A01 T00351014  RH  070%=      5-min Rain = 0
KES1 190444Z 34019KT 04/M01 A2995 RMK A01 T00351014  RH  070%=      5-min Rain = 0
KES1 190445Z 33015KT 04/M01 A2995 RMK A01 T00351014  RH  070%=      5-min Rain = 0
KES1 190446Z 34017KT 04/M01 A2995 RMK A01 T00351014  RH  070%=      5-min Rain = 0
KES1 190447Z 34018KT 04/M02 A2995 RMK A01 T00351015  RH  070%=      5-min Rain = 0
KES1 190448Z 34015KT 04/M02 A2995 RMK A01 T00351015  RH  069%=      5-min Rain = 0
KES1 190449Z 34019G24KT 04/M02 A2996 RMK A01 T00361016  RH  069%=      5-min Rain = 0
KES1 190450Z 34020KT 04/M02 A2995 RMK A01 T00351016  RH  069%=      5-min Rain = 0
KES1 190451Z 34019G24KT 04/M02 A2996 RMK A01 T00351017  RH  069%=      5-min Rain = 0
KES1 190452Z 34015KT 04/M02 A2996 RMK A01 T00351017  RH  069%=      5-min Rain = 0
KES1 190453Z 33017KT 04/M02 A2996 RMK A01 T00361016  RH  069%=      5-min Rain = 0
KES1 190454Z 33019KT 04/M02 A2996 RMK A01 T00361015  RH  069%=      5-min Rain = 0
KES1 190455Z 34021G27KT 04/M02 A2996 RMK A01 T00351015  RH  070%=      5-min Rain = 0
KES1 190456Z 33020G25KT 03/M02 A2996 RMK A01 T00341015  RH  070%=      5-min Rain = 0
KES1 190457Z 33025KT 03/M02 A2996 RMK A01 T00341016  RH  070%=      5-min Rain = 0
KES1 190458Z 34026G31KT 03/M02 A2996 RMK A01 T00341017  RH  069%=      5-min Rain = 0
KES1 190459Z 34019KT 03/M02 A2996 RMK A01 T00341018  RH  069%=      5-min Rain = 0
KES1 190500Z 34022KT 03/M02 A2996 RMK A01 T00341018  RH  069%=      5-min Rain = 0
KES1 190501Z 34020KT 03/M02 A2996 RMK A01 T00341018  RH  069%=      5-min Rain = 0
KES1 190502Z 34020G25KT 03/M02 A2997 RMK A01 T00341018  RH  069%=      5-min Rain = 0
KES1 190503Z 33024G29KT 03/M02 A2997 RMK A01 T00341018  RH  069%=      5-min Rain = 0
KES1 190504Z 33024KT 03/M02 A2997 RMK A01 T00341018  RH  069%=      5-min Rain = 0
KES1 190505Z 34022G27KT 03/M02 A2997 RMK A01 T00331017  RH  070%=      5-min Rain = 0
KES1 190506Z 34019G24KT 03/M02 A2997 RMK A01 T00331016  RH  071%=      5-min Rain = 0
KES1 190507Z 34018G23KT 03/M02 A2997 RMK A01 T00321015  RH  071%=      5-min Rain = 0
KES1 190508Z 34019G24KT 03/M02 A2997 RMK A01 T00321015  RH  071%=      5-min Rain = 0
KES1 190509Z 33020KT 03/M02 A2997 RMK A01 T00321015  RH  071%=      5-min Rain = 0
KES1 190510Z 33018KT 03/M02 A2997 RMK A01 T00321015  RH  071%=      5-min Rain = 0
KES1 190511Z 33018KT 03/M01 A2997 RMK A01 T00311014  RH  072%=      5-min Rain = 0
KES1 190512Z 33018KT 03/M01 A2998 RMK A01 T00291013  RH  074%=      5-min Rain = 0
KES1 190513Z 34020G25KT 03/M01 A2998 RMK A01 T00281014  RH  074%=      5-min Rain = 0
KES1 190514Z 34026G31KT 03/M01 A2998 RMK A01 T00281014  RH  074%=      5-min Rain = 0
KES1 190515Z 34026KT 03/M02 A2998 RMK A01 T00291016  RH  072%=      5-min Rain = 0
KES1 190516Z 35019G24KT 03/M02 A2998 RMK A01 T00301016  RH  072%=      5-min Rain = 0
KES1 190517Z 35024KT 03/M02 A2998 RMK A01 T00291015  RH  072%=      5-min Rain = 0
KES1 190518Z 35021KT 03/M02 A2998 RMK A01 T00301017  RH  071%=      5-min Rain = 0
KES1 190519Z 35019KT 03/M02 A2998 RMK A01 T00301017  RH  071%=      5-min Rain = 0
KES1 190520Z 34019KT 03/M02 A2998 RMK A01 T00301016  RH  071%=      5-min Rain = 0
KES1 190521Z 34019KT 03/M02 A2998 RMK A01 T00301017  RH  071%=      5-min Rain = 0
KES1 190522Z 33020KT 03/M02 A2998 RMK A01 T00301017  RH  071%=      5-min Rain = 0
KES1 190523Z 32023G29KT 03/M02 A2998 RMK A01 T00301017  RH  071%=      5-min Rain = 0
KES1 190524Z 34024KT 03/M02 A2999 RMK A01 T00301018  RH  071%=      5-min Rain = 0
KES1 190525Z 33027G33KT 03/M02 A2999 RMK A01 T00311018  RH  070%=      5-min Rain = 0
KES1 190526Z 34032G39KT 03/M02 A2999 RMK A01 T00311020  RH  069%=      5-min Rain = 0
KES1 190527Z 34028G33KT 03/M02 A2999 RMK A01 T00301020  RH  070%=      5-min Rain = 0
KES1 190528Z 34027KT 03/M02 A2999 RMK A01 T00301020  RH  070%=      5-min Rain = 0
KES1 190529Z 34023G28KT 03/M02 A2999 RMK A01 T00291020  RH  070%=      5-min Rain = 0
KES1 190530Z 34021G26KT 03/M02 A2999 RMK A01 T00291020  RH  070%=      5-min Rain = 0
KES1 190531Z 35022KT 03/M02 A2999 RMK A01 T00291018  RH  071%=      5-min Rain = 0
KES1 190532Z 34024KT 03/M02 A30 RMK A01 T00291019  RH  071%=      5-min Rain = 0
KES1 190533Z 34026G33KT 03/M02 A30 RMK A01 T00291020  RH  070%=      5-min Rain = 0
KES1 190534Z 34028G34KT 03/M02 A30 RMK A01 T00291021  RH  070%=      5-min Rain = 0
KES1 190535Z 34026G31KT 03/M02 A30 RMK A01 T00291022  RH  069%=      5-min Rain = 0
KES1 190536Z 34020G26KT 03/M02 A30 RMK A01 T00291021  RH  070%=      5-min Rain = 0
KES1 190537Z 34021KT 03/M02 A30 RMK A01 T00291020  RH  070%=      5-min Rain = 0
KES1 190538Z 34019G25KT 03/M02 A30 RMK A01 T00291021  RH  070%=      5-min Rain = 0
KES1 190539Z 34020G27KT 03/M02 A30 RMK A01 T00291021  RH  070%=      5-min Rain = 0
KES1 190540Z 34025G31KT 03/M02 A3001 RMK A01 T00291021  RH  070%=      5-min Rain = 0
KES1 190541Z 35025KT 03/M02 A3001 RMK A01 T00281023  RH  069%=      5-min Rain = 0
KES1 190542Z 35025KT 03/M02 A3001 RMK A01 T00281023  RH  069%=      5-min Rain = 0
KES1 190543Z 35024KT 03/M02 A3001 RMK A01 T00281024  RH  068%=      5-min Rain = 0
KES1 190544Z 35023KT 03/M03 A3001 RMK A01 T00281025  RH  068%=      5-min Rain = 0
KES1 190545Z 35020KT 03/M03 A3001 RMK A01 T00281025  RH  068%=      5-min Rain = 0
KES1 190546Z 35017KT 03/M02 A3001 RMK A01 T00291024  RH  068%=      5-min Rain = 0
KES1 190547Z 34018G24KT 03/M02 A3001 RMK A01 T00291023  RH  069%=      5-min Rain = 0
KES1 190548Z 34022KT 03/M02 A3001 RMK A01 T00291024  RH  068%=      5-min Rain = 0
KES1 190549Z 34021KT 03/M03 A3001 RMK A01 T00291025  RH  068%=      5-min Rain = 0
KES1 190550Z 34024KT 03/M03 A3001 RMK A01 T00291025  RH  068%=      5-min Rain = 0
KES1 190551Z 35023KT 03/M03 A3001 RMK A01 T00291026  RH  067%=      5-min Rain = 0
KES1 190552Z 35025KT 03/M03 A3001 RMK A01 T00291027  RH  067%=      5-min Rain = 0
KES1 190553Z 35025KT 03/M03 A3001 RMK A01 T00291026  RH  067%=      5-min Rain = 0
KES1 190554Z 34024G29KT 03/M03 A3001 RMK A01 T00291026  RH  067%=      5-min Rain = 0
KES1 190555Z 34022KT 03/M03 A3001 RMK A01 T00291026  RH  067%=      5-min Rain = 0
KES1 190556Z 34022G29KT 03/M03 A3001 RMK A01 T00291026  RH  067%=      5-min Rain = 0
KES1 190557Z 35023G28KT 03/M03 A3001 RMK A01 T00291026  RH  067%=      5-min Rain = 0
KES1 190558Z 35018KT 03/M03 A3001 RMK A01 T00291026  RH  067%=      5-min Rain = 0
KES1 190559Z 35019G28KT 03/M03 A3002 RMK A01 T00291025  RH  068%=      5-min Rain = 0

Page generated in 0.1381 seconds.